<?xml version='1.0' encoding='UTF-8'?><gpx version="1.1" creator="JPX - https://github.com/jenetics/jpx" xmlns="http://www.topografix.com/GPX/1/1"><trk><trkseg><trkpt lat="45.59453531941576" lon="10.134462509194375"><ele>163.99999999999997</ele><time>2026-04-10T16:27:33.002Z</time></trkpt><trkpt lat="45.59454154583596" lon="10.134337755308263"><ele>164.0</ele><time>2026-04-10T16:27:36.002Z</time></trkpt><trkpt lat="45.59456202973579" lon="10.134248786929483"><ele>164.0</ele><time>2026-04-10T16:27:40.002Z</time></trkpt><trkpt lat="45.59457884752379" lon="10.13414652987906"><ele>164.0</ele><time>2026-04-10T16:27:44.002Z</time></trkpt><trkpt lat="45.594593025913014" lon="10.134049772355228"><ele>164.0</ele><time>2026-04-10T16:27:47.002Z</time></trkpt><trkpt lat="45.594603352130534" lon="10.133958761735075"><ele>163.99999999999997</ele><time>2026-04-10T16:27:50.002Z</time></trkpt><trkpt lat="45.59462691582306" lon="10.133853340641137"><ele>164.0</ele><time>2026-04-10T16:27:54.002Z</time></trkpt><trkpt lat="45.59464271041479" lon="10.133764937533163"><ele>163.99999999999997</ele><time>2026-04-10T16:27:57.002Z</time></trkpt><trkpt lat="45.59466309740948" lon="10.133666513577756"><ele>164.0</ele><time>2026-04-10T16:28:00.002Z</time></trkpt><trkpt lat="45.594683222943715" lon="10.133576033012806"><ele>164.0</ele><time>2026-04-10T16:28:03.002Z</time></trkpt><trkpt lat="45.594706247094784" lon="10.133453733547242"><ele>164.0</ele><time>2026-04-10T16:28:07.002Z</time></trkpt><trkpt lat="45.59471787806938" lon="10.133355709659106"><ele>164.0</ele><time>2026-04-10T16:28:10.002Z</time></trkpt><trkpt lat="45.594720601564696" lon="10.133254707135478"><ele>163.99999999999997</ele><time>2026-04-10T16:28:13.002Z</time></trkpt><trkpt lat="45.59473824437452" lon="10.133160431335646"><ele>164.0</ele><time>2026-04-10T16:28:16.002Z</time></trkpt><trkpt lat="45.594751557965196" lon="10.13306204375887"><ele>163.57142857142856</ele><time>2026-04-10T16:28:19.002Z</time></trkpt><trkpt lat="45.59476983623679" lon="10.132963741689117"><ele>163.14285714285714</ele><time>2026-04-10T16:28:22.002Z</time></trkpt><trkpt lat="45.594793546617126" lon="10.132876435180329"><ele>162.71428571428572</ele><time>2026-04-10T16:28:25.002Z</time></trkpt><trkpt lat="45.59481154964481" lon="10.132784861278724"><ele>162.28571428571428</ele><time>2026-04-10T16:28:28.002Z</time></trkpt><trkpt lat="45.59483126182133" lon="10.132696745110684"><ele>161.85714285714286</ele><time>2026-04-10T16:28:31.002Z</time></trkpt><trkpt lat="45.594848416585364" lon="10.132598656132137"><ele>161.42857142857142</ele><time>2026-04-10T16:28:34.002Z</time></trkpt><trkpt lat="45.594860080651834" lon="10.132495118085561"><ele>161.0</ele><time>2026-04-10T16:28:37.002Z</time></trkpt><trkpt lat="45.59487452080977" lon="10.132396747813086"><ele>160.85714285714286</ele><time>2026-04-10T16:28:40.002Z</time></trkpt><trkpt lat="45.59489253464381" lon="10.132300334623247"><ele>160.71428571428572</ele><time>2026-04-10T16:28:43.002Z</time></trkpt><trkpt lat="45.594917315597215" lon="10.132194838723187"><ele>160.57142857142856</ele><time>2026-04-10T16:28:48.002Z</time></trkpt><trkpt lat="45.59494061230118" lon="10.132106792880949"><ele>160.42857142857144</ele><time>2026-04-10T16:28:51.002Z</time></trkpt><trkpt lat="45.594952682082294" lon="10.132005886251976"><ele>160.28571428571428</ele><time>2026-04-10T16:28:54.002Z</time></trkpt><trkpt lat="45.59497885713265" lon="10.13191751643532"><ele>160.14285714285714</ele><time>2026-04-10T16:28:57.003Z</time></trkpt><trkpt lat="45.594998679769084" lon="10.131820059406886"><ele>160.0</ele><time>2026-04-10T16:29:00.003Z</time></trkpt><trkpt lat="45.595019296778744" lon="10.131721342676805"><ele>160.0</ele><time>2026-04-10T16:29:03.003Z</time></trkpt><trkpt lat="45.59502956223951" lon="10.131620532897532"><ele>160.0</ele><time>2026-04-10T16:29:06.003Z</time></trkpt><trkpt lat="45.59501911663704" lon="10.131508486184625"><ele>160.0</ele><time>2026-04-10T16:29:09.003Z</time></trkpt><trkpt lat="45.59498147788896" lon="10.13139421651624"><ele>160.0</ele><time>2026-04-10T16:29:12.003Z</time></trkpt><trkpt lat="45.59491324726189" lon="10.13133846234106"><ele>160.0</ele><time>2026-04-10T16:29:15.003Z</time></trkpt><trkpt lat="45.59483850325532" lon="10.13132887076389"><ele>160.0</ele><time>2026-04-10T16:29:18.003Z</time></trkpt><trkpt lat="45.594777526605725" lon="10.131305334691122"><ele>160.0</ele><time>2026-04-10T16:29:21.003Z</time></trkpt><trkpt lat="45.594705842699334" lon="10.131300046057127"><ele>160.0</ele><time>2026-04-10T16:29:24.003Z</time></trkpt><trkpt lat="45.594639542912375" lon="10.131277136130326"><ele>160.0</ele><time>2026-04-10T16:29:27.003Z</time></trkpt><trkpt lat="45.59457348242704" lon="10.131251595967766"><ele>160.0</ele><time>2026-04-10T16:29:30.003Z</time></trkpt><trkpt lat="45.594503111108544" lon="10.131236182696915"><ele>160.0</ele><time>2026-04-10T16:29:33.003Z</time></trkpt><trkpt lat="45.5944277303956" lon="10.131233169239078"><ele>160.0</ele><time>2026-04-10T16:29:36.003Z</time></trkpt><trkpt lat="45.59435563846743" lon="10.131218551924992"><ele>160.0</ele><time>2026-04-10T16:29:39.003Z</time></trkpt><trkpt lat="45.59426847217065" lon="10.131214852450752"><ele>159.57142857142856</ele><time>2026-04-10T16:29:42.003Z</time></trkpt><trkpt lat="45.59417559943515" lon="10.131232337458451"><ele>159.14285714285714</ele><time>2026-04-10T16:29:45.003Z</time></trkpt><trkpt lat="45.594109210397406" lon="10.131213828639646"><ele>158.71428571428572</ele><time>2026-04-10T16:29:48.003Z</time></trkpt><trkpt lat="45.59402774050289" lon="10.13118574977954"><ele>158.28571428571428</ele><time>2026-04-10T16:29:52.003Z</time></trkpt><trkpt lat="45.59396062734154" lon="10.131180767805047"><ele>157.85714285714286</ele><time>2026-04-10T16:29:55.003Z</time></trkpt><trkpt lat="45.593895597856324" lon="10.131172353912868"><ele>157.42857142857142</ele><time>2026-04-10T16:29:58.003Z</time></trkpt><trkpt lat="45.593829777380556" lon="10.13115250589305"><ele>157.0</ele><time>2026-04-10T16:30:01.003Z</time></trkpt><trkpt lat="45.593763557568" lon="10.131149003449876"><ele>156.99999999999997</ele><time>2026-04-10T16:30:04.003Z</time></trkpt><trkpt lat="45.59369508710816" lon="10.131145298814568"><ele>157.0</ele><time>2026-04-10T16:30:07.003Z</time></trkpt><trkpt lat="45.5936204460294" lon="10.131139439304112"><ele>157.0</ele><time>2026-04-10T16:30:10.003Z</time></trkpt><trkpt lat="45.59354785088891" lon="10.131143942666633"><ele>157.0</ele><time>2026-04-10T16:30:13.003Z</time></trkpt><trkpt lat="45.59347485583152" lon="10.131132349482774"><ele>157.0</ele><time>2026-04-10T16:30:16.003Z</time></trkpt><trkpt lat="45.59340969113392" lon="10.131134333753078"><ele>156.99999999999997</ele><time>2026-04-10T16:30:19.003Z</time></trkpt><trkpt lat="45.59333291073039" lon="10.131124686044162"><ele>157.0</ele><time>2026-04-10T16:30:23.003Z</time></trkpt><trkpt lat="45.593260680159815" lon="10.131122258257243"><ele>156.99999999999997</ele><time>2026-04-10T16:30:26.003Z</time></trkpt><trkpt lat="45.59319011303743" lon="10.131100294390967"><ele>157.0</ele><time>2026-04-10T16:30:29.003Z</time></trkpt><trkpt lat="45.59312337221302" lon="10.131069542133353"><ele>157.0</ele><time>2026-04-10T16:30:32.003Z</time></trkpt><trkpt lat="45.59304906901879" lon="10.131094854987543"><ele>157.0</ele><time>2026-04-10T16:30:35.003Z</time></trkpt><trkpt lat="45.59296911886538" lon="10.131078477097457"><ele>157.0</ele><time>2026-04-10T16:30:38.003Z</time></trkpt><trkpt lat="45.59290193792539" lon="10.131037856539185"><ele>156.99999999999997</ele><time>2026-04-10T16:30:41.003Z</time></trkpt><trkpt lat="45.592826667170726" lon="10.131037231804376"><ele>157.0</ele><time>2026-04-10T16:30:44.003Z</time></trkpt><trkpt lat="45.592763348339034" lon="10.131016565558578"><ele>156.99999999999997</ele><time>2026-04-10T16:30:47.003Z</time></trkpt><trkpt lat="45.59269789782212" lon="10.131008611213716"><ele>157.0</ele><time>2026-04-10T16:30:50.003Z</time></trkpt><trkpt lat="45.59263006785834" lon="10.131019829756498"><ele>157.0</ele><time>2026-04-10T16:30:53.003Z</time></trkpt><trkpt lat="45.592565225974525" lon="10.131043141353526"><ele>157.0</ele><time>2026-04-10T16:30:56.003Z</time></trkpt><trkpt lat="45.592499383978364" lon="10.131067863868486"><ele>157.0</ele><time>2026-04-10T16:30:59.003Z</time></trkpt><trkpt lat="45.59244646640803" lon="10.131159207909143"><ele>156.99999999999997</ele><time>2026-04-10T16:31:03.003Z</time></trkpt><trkpt lat="45.59243944808825" lon="10.131266452618828"><ele>157.0</ele><time>2026-04-10T16:31:06.003Z</time></trkpt><trkpt lat="45.59240996093081" lon="10.13135435121314"><ele>156.99999999999997</ele><time>2026-04-10T16:31:09.003Z</time></trkpt><trkpt lat="45.59233326233243" lon="10.131326055270518"><ele>157.0</ele><time>2026-04-10T16:31:13.003Z</time></trkpt><trkpt lat="45.592271904059274" lon="10.13128243496107"><ele>157.0</ele><time>2026-04-10T16:31:16.003Z</time></trkpt><trkpt lat="45.592212458770064" lon="10.13124739771551"><ele>157.0</ele><time>2026-04-10T16:31:19.003Z</time></trkpt><trkpt lat="45.592145646932764" lon="10.13122038401103"><ele>157.0</ele><time>2026-04-10T16:31:22.003Z</time></trkpt><trkpt lat="45.592073209750936" lon="10.131188796485032"><ele>156.99999999999997</ele><time>2026-04-10T16:31:26.003Z</time></trkpt><trkpt lat="45.59200898893724" lon="10.131174984598985"><ele>157.0</ele><time>2026-04-10T16:31:29.003Z</time></trkpt><trkpt lat="45.591945602221806" lon="10.131160381379376"><ele>156.99999999999997</ele><time>2026-04-10T16:31:32.003Z</time></trkpt><trkpt lat="45.5918746978756" lon="10.131145045697188"><ele>157.0</ele><time>2026-04-10T16:31:35.003Z</time></trkpt><trkpt lat="45.59181035931225" lon="10.1311323675953"><ele>157.0</ele><time>2026-04-10T16:31:38.003Z</time></trkpt><trkpt lat="45.591745407747275" lon="10.131122373627578"><ele>157.0</ele><time>2026-04-10T16:31:41.003Z</time></trkpt><trkpt lat="45.591680214827576" lon="10.131102534290266"><ele>157.0</ele><time>2026-04-10T16:31:44.003Z</time></trkpt><trkpt lat="45.59159570037985" lon="10.131091263103759"><ele>156.99999999999997</ele><time>2026-04-10T16:31:48.003Z</time></trkpt><trkpt lat="45.59152652395256" lon="10.131078845062943"><ele>157.0</ele><time>2026-04-10T16:31:51.004Z</time></trkpt><trkpt lat="45.59145722843809" lon="10.131063166238743"><ele>156.99999999999997</ele><time>2026-04-10T16:31:54.004Z</time></trkpt><trkpt lat="45.59138460263648" lon="10.131047499334318"><ele>157.0</ele><time>2026-04-10T16:31:57.004Z</time></trkpt><trkpt lat="45.59131963381101" lon="10.131039377322606"><ele>157.0</ele><time>2026-04-10T16:32:00.004Z</time></trkpt><trkpt lat="45.59125192756279" lon="10.131033179272293"><ele>157.0</ele><time>2026-04-10T16:32:03.004Z</time></trkpt><trkpt lat="45.59118333610999" lon="10.13101859942407"><ele>157.0</ele><time>2026-04-10T16:32:06.004Z</time></trkpt><trkpt lat="45.59111565771741" lon="10.131006081861278"><ele>156.99999999999997</ele><time>2026-04-10T16:32:09.004Z</time></trkpt><trkpt lat="45.591046995652974" lon="10.130993024592815"><ele>157.0</ele><time>2026-04-10T16:32:12.004Z</time></trkpt><trkpt lat="45.59098180829371" lon="10.130980684465495"><ele>156.7142857142857</ele><time>2026-04-10T16:32:15.004Z</time></trkpt><trkpt lat="45.5908973732002" lon="10.13096628231279"><ele>156.42857142857142</ele><time>2026-04-10T16:32:19.004Z</time></trkpt><trkpt lat="45.590828784736765" lon="10.130954247107631"><ele>156.14285714285714</ele><time>2026-04-10T16:32:22.004Z</time></trkpt><trkpt lat="45.59076381746941" lon="10.130940582435171"><ele>155.85714285714283</ele><time>2026-04-10T16:32:25.004Z</time></trkpt><trkpt lat="45.590694960874664" lon="10.130935082997079"><ele>155.57142857142856</ele><time>2026-04-10T16:32:28.004Z</time></trkpt><trkpt lat="45.590627732691964" lon="10.130921268317769"><ele>155.28571428571428</ele><time>2026-04-10T16:32:31.004Z</time></trkpt><trkpt lat="45.59056097494991" lon="10.130914537658578"><ele>155.0</ele><time>2026-04-10T16:32:34.004Z</time></trkpt><trkpt lat="45.59049559116617" lon="10.130902691623676"><ele>155.0</ele><time>2026-04-10T16:32:37.004Z</time></trkpt><trkpt lat="45.59042892197342" lon="10.130889724841957"><ele>155.0</ele><time>2026-04-10T16:32:40.004Z</time></trkpt><trkpt lat="45.59036001723058" lon="10.130886797559263"><ele>155.0</ele><time>2026-04-10T16:32:43.004Z</time></trkpt><trkpt lat="45.59029530294245" lon="10.130871465751449"><ele>155.0</ele><time>2026-04-10T16:32:46.004Z</time></trkpt><trkpt lat="45.59022961156587" lon="10.130856587519748"><ele>155.0</ele><time>2026-04-10T16:32:49.004Z</time></trkpt><trkpt lat="45.59016562601789" lon="10.130855672522822"><ele>155.0</ele><time>2026-04-10T16:32:52.004Z</time></trkpt><trkpt lat="45.59009581098053" lon="10.130847971681032"><ele>155.0</ele><time>2026-04-10T16:32:55.004Z</time></trkpt><trkpt lat="45.59003082083867" lon="10.130854776364819"><ele>155.0</ele><time>2026-04-10T16:32:58.004Z</time></trkpt><trkpt lat="45.589962205069114" lon="10.130847014808833"><ele>155.0</ele><time>2026-04-10T16:33:01.004Z</time></trkpt><trkpt lat="45.589896515165414" lon="10.130853484533382"><ele>155.0</ele><time>2026-04-10T16:33:04.004Z</time></trkpt><trkpt lat="45.589828551132" lon="10.130851587524583"><ele>155.0</ele><time>2026-04-10T16:33:07.004Z</time></trkpt><trkpt lat="45.58976142126036" lon="10.1308584086728"><ele>155.0</ele><time>2026-04-10T16:33:10.004Z</time></trkpt><trkpt lat="45.589697732282204" lon="10.130863471653724"><ele>155.0</ele><time>2026-04-10T16:33:13.004Z</time></trkpt><trkpt lat="45.5896325460344" lon="10.130860279217286"><ele>155.0</ele><time>2026-04-10T16:33:16.004Z</time></trkpt><trkpt lat="45.589549909933545" lon="10.130855042917087"><ele>154.71428571428572</ele><time>2026-04-10T16:33:20.004Z</time></trkpt><trkpt lat="45.589482404609214" lon="10.130851952672133"><ele>154.42857142857142</ele><time>2026-04-10T16:33:23.004Z</time></trkpt><trkpt lat="45.58941756310492" lon="10.130854829687808"><ele>154.14285714285714</ele><time>2026-04-10T16:33:26.004Z</time></trkpt><trkpt lat="45.589354312189734" lon="10.130858826181901"><ele>153.85714285714286</ele><time>2026-04-10T16:33:29.004Z</time></trkpt><trkpt lat="45.58928756613485" lon="10.130857682250426"><ele>153.57142857142858</ele><time>2026-04-10T16:33:32.004Z</time></trkpt><trkpt lat="45.58922248087881" lon="10.130855213345274"><ele>153.28571428571428</ele><time>2026-04-10T16:33:35.004Z</time></trkpt><trkpt lat="45.5891434799439" lon="10.130858727421328"><ele>153.0</ele><time>2026-04-10T16:33:39.004Z</time></trkpt><trkpt lat="45.589078538225664" lon="10.130854786292025"><ele>153.0</ele><time>2026-04-10T16:33:42.004Z</time></trkpt><trkpt lat="45.589012529289406" lon="10.130852200938618"><ele>153.0</ele><time>2026-04-10T16:33:45.004Z</time></trkpt><trkpt lat="45.58894755769304" lon="10.130855954468778"><ele>153.0</ele><time>2026-04-10T16:33:48.004Z</time></trkpt><trkpt lat="45.58888305555238" lon="10.130847249062876"><ele>153.0</ele><time>2026-04-10T16:33:51.004Z</time></trkpt><trkpt lat="45.588801384201105" lon="10.13084925064525"><ele>153.0</ele><time>2026-04-10T16:33:55.004Z</time></trkpt><trkpt lat="45.58873515658526" lon="10.130843794328085"><ele>153.0</ele><time>2026-04-10T16:33:58.004Z</time></trkpt><trkpt lat="45.58867085090073" lon="10.130845870895273"><ele>153.0</ele><time>2026-04-10T16:34:01.004Z</time></trkpt><trkpt lat="45.58859269605571" lon="10.13085433918757"><ele>153.14285714285714</ele><time>2026-04-10T16:34:05.004Z</time></trkpt><trkpt lat="45.588527340402315" lon="10.130856406426737"><ele>153.28571428571428</ele><time>2026-04-10T16:34:08.004Z</time></trkpt><trkpt lat="45.5884505827702" lon="10.13087053484103"><ele>153.42857142857144</ele><time>2026-04-10T16:34:12.004Z</time></trkpt><trkpt lat="45.58837897645708" lon="10.130886470087118"><ele>153.57142857142856</ele><time>2026-04-10T16:34:17.004Z</time></trkpt><trkpt lat="45.58831360696101" lon="10.130891328691245"><ele>153.71428571428572</ele><time>2026-04-10T16:34:23.004Z</time></trkpt><trkpt lat="45.588240092350155" lon="10.130895284129654"><ele>153.85714285714286</ele><time>2026-04-10T16:34:29.004Z</time></trkpt><trkpt lat="45.58817384175998" lon="10.1309057669152"><ele>154.0</ele><time>2026-04-10T16:34:34.004Z</time></trkpt><trkpt lat="45.58810818914352" lon="10.130913344578959"><ele>154.0</ele><time>2026-04-10T16:34:39.004Z</time></trkpt><trkpt lat="45.588038156939135" lon="10.130912397892011"><ele>154.0</ele><time>2026-04-10T16:34:45.005Z</time></trkpt><trkpt lat="45.58796315017004" lon="10.130915026947566"><ele>154.0</ele><time>2026-04-10T16:34:51.005Z</time></trkpt><trkpt lat="45.587896448862644" lon="10.130915362768855"><ele>154.0</ele><time>2026-04-10T16:34:56.005Z</time></trkpt><trkpt lat="45.58783103452902" lon="10.130903821447502"><ele>154.0</ele><time>2026-04-10T16:35:02.005Z</time></trkpt><trkpt lat="45.587757689667484" lon="10.130901222398958"><ele>154.0</ele><time>2026-04-10T16:35:08.005Z</time></trkpt><trkpt lat="45.5876902384976" lon="10.130912690941168"><ele>154.0</ele><time>2026-04-10T16:35:13.005Z</time></trkpt><trkpt lat="45.58762529549475" lon="10.130914546739882"><ele>154.0</ele><time>2026-04-10T16:35:18.005Z</time></trkpt><trkpt lat="45.58754962127836" lon="10.130896871495242"><ele>154.0</ele><time>2026-04-10T16:35:24.005Z</time></trkpt><trkpt lat="45.58747976661955" lon="10.130891965805928"><ele>154.0</ele><time>2026-04-10T16:35:30.005Z</time></trkpt><trkpt lat="45.58740302204206" lon="10.130894592599095"><ele>154.0</ele><time>2026-04-10T16:35:35.005Z</time></trkpt><trkpt lat="45.587338926249544" lon="10.130895367852634"><ele>154.0</ele><time>2026-04-10T16:35:39.005Z</time></trkpt><trkpt lat="45.587257624883144" lon="10.13087708288917"><ele>154.0</ele><time>2026-04-10T16:35:43.005Z</time></trkpt><trkpt lat="45.587171799693955" lon="10.130864635978485"><ele>154.0</ele><time>2026-04-10T16:35:47.005Z</time></trkpt><trkpt lat="45.58707646685329" lon="10.130872531837204"><ele>154.0</ele><time>2026-04-10T16:35:50.005Z</time></trkpt><trkpt lat="45.587000834962815" lon="10.130876329634162"><ele>154.0</ele><time>2026-04-10T16:35:52.005Z</time></trkpt><trkpt lat="45.58691889402203" lon="10.130864443186255"><ele>154.0</ele><time>2026-04-10T16:35:54.005Z</time></trkpt><trkpt lat="45.5868436718304" lon="10.130855326738228"><ele>154.0</ele><time>2026-04-10T16:35:56.005Z</time></trkpt><trkpt lat="45.58676826386578" lon="10.130858037759493"><ele>154.0</ele><time>2026-04-10T16:35:58.005Z</time></trkpt><trkpt lat="45.58669121167642" lon="10.130854179747095"><ele>154.0</ele><time>2026-04-10T16:36:00.005Z</time></trkpt><trkpt lat="45.586630440171994" lon="10.130828535434231"><ele>154.0</ele><time>2026-04-10T16:36:02.005Z</time></trkpt><trkpt lat="45.586564464596364" lon="10.130812867205755"><ele>154.0</ele><time>2026-04-10T16:36:04.005Z</time></trkpt><trkpt lat="45.586473887729305" lon="10.130778672697073"><ele>154.0</ele><time>2026-04-10T16:36:07.005Z</time></trkpt><trkpt lat="45.58641310491973" lon="10.130754454125986"><ele>154.0</ele><time>2026-04-10T16:36:09.005Z</time></trkpt><trkpt lat="45.58634814635462" lon="10.13072770892278"><ele>154.0</ele><time>2026-04-10T16:36:11.005Z</time></trkpt><trkpt lat="45.58625498109281" lon="10.130697428787618"><ele>154.0</ele><time>2026-04-10T16:36:14.005Z</time></trkpt><trkpt lat="45.58619290065652" lon="10.130680875914058"><ele>154.0</ele><time>2026-04-10T16:36:16.005Z</time></trkpt><trkpt lat="45.58613226760964" lon="10.130639402657817"><ele>154.0</ele><time>2026-04-10T16:36:18.005Z</time></trkpt><trkpt lat="45.58604737214237" lon="10.130603893532543"><ele>154.0</ele><time>2026-04-10T16:36:21.005Z</time></trkpt><trkpt lat="45.5859840486944" lon="10.130583495968489"><ele>154.0</ele><time>2026-04-10T16:36:23.005Z</time></trkpt><trkpt lat="45.58592273926182" lon="10.130538788861255"><ele>154.0</ele><time>2026-04-10T16:36:25.005Z</time></trkpt><trkpt lat="45.58585728832324" lon="10.130514179643466"><ele>154.0</ele><time>2026-04-10T16:36:27.005Z</time></trkpt><trkpt lat="45.58580077244372" lon="10.130472255625193"><ele>154.0</ele><time>2026-04-10T16:36:29.005Z</time></trkpt><trkpt lat="45.58572084417948" lon="10.130420530597705"><ele>154.0</ele><time>2026-04-10T16:36:32.005Z</time></trkpt><trkpt lat="45.585649686817426" lon="10.13039343019448"><ele>154.0</ele><time>2026-04-10T16:36:34.005Z</time></trkpt><trkpt lat="45.58556725774609" lon="10.130349856290634"><ele>154.0</ele><time>2026-04-10T16:36:37.005Z</time></trkpt><trkpt lat="45.585475797765596" lon="10.1303294212269"><ele>154.0</ele><time>2026-04-10T16:36:40.005Z</time></trkpt><trkpt lat="45.58540745864534" lon="10.130320890064482"><ele>154.0</ele><time>2026-04-10T16:36:42.005Z</time></trkpt><trkpt lat="45.585329993733296" lon="10.130334600895788"><ele>154.0</ele><time>2026-04-10T16:36:44.005Z</time></trkpt><trkpt lat="45.58525857157788" lon="10.130341143908748"><ele>154.0</ele><time>2026-04-10T16:36:46.005Z</time></trkpt><trkpt lat="45.58519520837988" lon="10.130335204341874"><ele>154.0</ele><time>2026-04-10T16:36:48.005Z</time></trkpt><trkpt lat="45.58510452673665" lon="10.130320315022582"><ele>154.0</ele><time>2026-04-10T16:36:51.005Z</time></trkpt><trkpt lat="45.585010251423114" lon="10.130329220466383"><ele>154.0</ele><time>2026-04-10T16:36:54.005Z</time></trkpt><trkpt lat="45.584944666306534" lon="10.130323689113517"><ele>154.0</ele><time>2026-04-10T16:36:56.005Z</time></trkpt><trkpt lat="45.58485415147148" lon="10.13030637073258"><ele>154.0</ele><time>2026-04-10T16:36:59.005Z</time></trkpt><trkpt lat="45.584771307022194" lon="10.13030099314062"><ele>154.0</ele><time>2026-04-10T16:37:02.005Z</time></trkpt><trkpt lat="45.58468302777952" lon="10.130286336823463"><ele>154.0</ele><time>2026-04-10T16:37:05.005Z</time></trkpt><trkpt lat="45.58460466892324" lon="10.130267437219427"><ele>154.0</ele><time>2026-04-10T16:37:08.005Z</time></trkpt><trkpt lat="45.584515639187856" lon="10.130263315962354"><ele>154.0</ele><time>2026-04-10T16:37:11.005Z</time></trkpt><trkpt lat="45.58442962234768" lon="10.130252353213576"><ele>154.0</ele><time>2026-04-10T16:37:14.005Z</time></trkpt><trkpt lat="45.584346924530195" lon="10.130231653925184"><ele>153.66666666666669</ele><time>2026-04-10T16:37:17.005Z</time></trkpt><trkpt lat="45.584254090654916" lon="10.13021923704699"><ele>153.33333333333334</ele><time>2026-04-10T16:37:20.005Z</time></trkpt><trkpt lat="45.5841627663744" lon="10.130209143732571"><ele>153.0</ele><time>2026-04-10T16:37:23.005Z</time></trkpt><trkpt lat="45.584082952886455" lon="10.13021228120398"><ele>152.66666666666666</ele><time>2026-04-10T16:37:26.005Z</time></trkpt><trkpt lat="45.58400182955461" lon="10.13024482007631"><ele>152.33333333333331</ele><time>2026-04-10T16:37:29.005Z</time></trkpt><trkpt lat="45.58398922901649" lon="10.130335817242283"><ele>152.0</ele><time>2026-04-10T16:37:31.005Z</time></trkpt><trkpt lat="45.58397661648656" lon="10.130450830608748"><ele>152.0</ele><time>2026-04-10T16:37:34.005Z</time></trkpt><trkpt lat="45.583973517644786" lon="10.130572852185919"><ele>152.0</ele><time>2026-04-10T16:37:37.005Z</time></trkpt><trkpt lat="45.58396667778732" lon="10.13070915091069"><ele>152.0</ele><time>2026-04-10T16:37:40.006Z</time></trkpt><trkpt lat="45.58397028189105" lon="10.130832711597993"><ele>152.0</ele><time>2026-04-10T16:37:43.006Z</time></trkpt><trkpt lat="45.5839636064117" lon="10.130959690517274"><ele>152.0</ele><time>2026-04-10T16:37:46.006Z</time></trkpt><trkpt lat="45.583957153408065" lon="10.131094306864886"><ele>152.0</ele><time>2026-04-10T16:37:49.006Z</time></trkpt><trkpt lat="45.5839584472655" lon="10.131236092237879"><ele>152.0</ele><time>2026-04-10T16:37:52.006Z</time></trkpt><trkpt lat="45.58395303163634" lon="10.131357325402831"><ele>152.0</ele><time>2026-04-10T16:37:55.006Z</time></trkpt><trkpt lat="45.583954699786496" lon="10.131449036385643"><ele>152.0</ele><time>2026-04-10T16:37:57.006Z</time></trkpt><trkpt lat="45.58394811538102" lon="10.131576020505737"><ele>152.0</ele><time>2026-04-10T16:38:00.006Z</time></trkpt><trkpt lat="45.58395093056163" lon="10.131701916039546"><ele>152.0</ele><time>2026-04-10T16:38:03.006Z</time></trkpt><trkpt lat="45.583953671488366" lon="10.131828533379188"><ele>152.0</ele><time>2026-04-10T16:38:06.006Z</time></trkpt><trkpt lat="45.5839480215713" lon="10.131919196449733"><ele>152.0</ele><time>2026-04-10T16:38:08.006Z</time></trkpt><trkpt lat="45.58393988131278" lon="10.13205350162916"><ele>152.0</ele><time>2026-04-10T16:38:11.006Z</time></trkpt><trkpt lat="45.58394322372382" lon="10.132144213844821"><ele>152.0</ele><time>2026-04-10T16:38:13.006Z</time></trkpt><trkpt lat="45.583950561300334" lon="10.132270224572741"><ele>152.0</ele><time>2026-04-10T16:38:16.006Z</time></trkpt><trkpt lat="45.583968051517644" lon="10.132365180001672"><ele>152.0</ele><time>2026-04-10T16:38:18.006Z</time></trkpt><trkpt lat="45.58397366375544" lon="10.132455610178042"><ele>152.0</ele><time>2026-04-10T16:38:20.006Z</time></trkpt><trkpt lat="45.583977520517074" lon="10.132586835397316"><ele>152.16666666666666</ele><time>2026-04-10T16:38:23.006Z</time></trkpt><trkpt lat="45.58398188453425" lon="10.132679004681023"><ele>152.33333333333331</ele><time>2026-04-10T16:38:25.006Z</time></trkpt><trkpt lat="45.58399290179198" lon="10.132774173033628"><ele>152.5</ele><time>2026-04-10T16:38:27.006Z</time></trkpt><trkpt lat="45.58399990862051" lon="10.132901128127994"><ele>152.66666666666666</ele><time>2026-04-10T16:38:30.006Z</time></trkpt><trkpt lat="45.58409473775841" lon="10.132868749780773"><ele>152.83333333333334</ele><time>2026-04-10T16:38:33.006Z</time></trkpt><trkpt lat="45.58414007521302" lon="10.132769867776167"><ele>153.0</ele><time>2026-04-10T16:38:36.006Z</time></trkpt><trkpt lat="45.58420579128714" lon="10.132681850628725"><ele>153.0</ele><time>2026-04-10T16:38:39.006Z</time></trkpt><trkpt lat="45.58425790545318" lon="10.132630187875908"><ele>153.0</ele><time>2026-04-10T16:38:41.006Z</time></trkpt><trkpt lat="45.58432484586407" lon="10.132542011188793"><ele>153.0</ele><time>2026-04-10T16:38:44.006Z</time></trkpt><trkpt lat="45.584384509392535" lon="10.132446393787069"><ele>153.0</ele><time>2026-04-10T16:38:47.006Z</time></trkpt><trkpt lat="45.584449639769794" lon="10.132354889131427"><ele>153.0</ele><time>2026-04-10T16:38:50.006Z</time></trkpt><trkpt lat="45.58450601698157" lon="10.132268569646849"><ele>153.0</ele><time>2026-04-10T16:38:53.006Z</time></trkpt><trkpt lat="45.58455197328875" lon="10.132196355214178"><ele>153.16666666666666</ele><time>2026-04-10T16:38:55.006Z</time></trkpt><trkpt lat="45.58461245647692" lon="10.132107635272837"><ele>153.33333333333334</ele><time>2026-04-10T16:38:58.006Z</time></trkpt><trkpt lat="45.58466585414397" lon="10.13201734900591"><ele>153.5</ele><time>2026-04-10T16:39:01.006Z</time></trkpt><trkpt lat="45.58472762021173" lon="10.131930015876433"><ele>153.66666666666669</ele><time>2026-04-10T16:39:04.006Z</time></trkpt><trkpt lat="45.58479631402524" lon="10.131844105906058"><ele>153.83333333333334</ele><time>2026-04-10T16:39:07.006Z</time></trkpt><trkpt lat="45.5848380843589" lon="10.131776055427562"><ele>154.0</ele><time>2026-04-10T16:39:09.006Z</time></trkpt><trkpt lat="45.58490069201027" lon="10.131697186520077"><ele>154.0</ele><time>2026-04-10T16:39:12.006Z</time></trkpt><trkpt lat="45.58494704064323" lon="10.13163358361165"><ele>154.0</ele><time>2026-04-10T16:39:14.006Z</time></trkpt><trkpt lat="45.58499052452923" lon="10.131566672272506"><ele>154.0</ele><time>2026-04-10T16:39:16.006Z</time></trkpt><trkpt lat="45.585057536997425" lon="10.131479375158488"><ele>154.0</ele><time>2026-04-10T16:39:19.006Z</time></trkpt><trkpt lat="45.58510890970258" lon="10.131395334049625"><ele>154.0</ele><time>2026-04-10T16:39:22.006Z</time></trkpt><trkpt lat="45.58516493613636" lon="10.13131106232726"><ele>154.0</ele><time>2026-04-10T16:39:25.006Z</time></trkpt><trkpt lat="45.58523806217678" lon="10.131234725571636"><ele>154.0</ele><time>2026-04-10T16:39:28.006Z</time></trkpt><trkpt lat="45.58529513795917" lon="10.13113568467195"><ele>154.0</ele><time>2026-04-10T16:39:31.006Z</time></trkpt><trkpt lat="45.58536627075123" lon="10.131062673362475"><ele>154.0</ele><time>2026-04-10T16:39:34.006Z</time></trkpt><trkpt lat="45.5854177527474" lon="10.13097569941583"><ele>154.0</ele><time>2026-04-10T16:39:37.006Z</time></trkpt><trkpt lat="45.58546296692277" lon="10.130908254345648"><ele>154.0</ele><time>2026-04-10T16:39:41.006Z</time></trkpt><trkpt lat="45.585506361291536" lon="10.130822550357715"><ele>154.0</ele><time>2026-04-10T16:39:47.006Z</time></trkpt><trkpt lat="45.58554692415635" lon="10.1307532331676"><ele>154.28571428571428</ele><time>2026-04-10T16:39:52.006Z</time></trkpt><trkpt lat="45.58559260811872" lon="10.130661809043596"><ele>154.57142857142856</ele><time>2026-04-10T16:39:58.006Z</time></trkpt><trkpt lat="45.5856420464317" lon="10.130584840601973"><ele>154.85714285714286</ele><time>2026-04-10T16:40:03.006Z</time></trkpt><trkpt lat="45.58567902798492" lon="10.130507807533242"><ele>155.14285714285714</ele><time>2026-04-10T16:40:08.006Z</time></trkpt><trkpt lat="45.585720415019345" lon="10.130420725686443"><ele>155.42857142857142</ele><time>2026-04-10T16:40:13.006Z</time></trkpt><trkpt lat="45.585753383051994" lon="10.13033994320119"><ele>155.71428571428572</ele><time>2026-04-10T16:40:20.006Z</time></trkpt><trkpt lat="45.58577443490198" lon="10.130249783700588"><ele>156.0</ele><time>2026-04-10T16:40:26.006Z</time></trkpt><trkpt lat="45.58582017148118" lon="10.13016053578162"><ele>156.0</ele><time>2026-04-10T16:40:36.007Z</time></trkpt><trkpt lat="45.585870807785845" lon="10.1300949932247"><ele>156.0</ele><time>2026-04-10T16:40:41.007Z</time></trkpt><trkpt lat="45.58591484620809" lon="10.130020946885512"><ele>156.0</ele><time>2026-04-10T16:40:46.007Z</time></trkpt><trkpt lat="45.58595728337353" lon="10.129935568935759"><ele>156.0</ele><time>2026-04-10T16:40:52.007Z</time></trkpt><trkpt lat="45.58599073119565" lon="10.129851781648233"><ele>156.0</ele><time>2026-04-10T16:40:57.007Z</time></trkpt><trkpt lat="45.58602353229774" lon="10.129765947142662"><ele>156.0</ele><time>2026-04-10T16:41:03.007Z</time></trkpt><trkpt lat="45.586063470629256" lon="10.129675947219454"><ele>156.0</ele><time>2026-04-10T16:41:08.007Z</time></trkpt><trkpt lat="45.58611382397094" lon="10.129577783601293"><ele>156.0</ele><time>2026-04-10T16:41:11.007Z</time></trkpt><trkpt lat="45.58616279443374" lon="10.129480192977276"><ele>156.0</ele><time>2026-04-10T16:41:14.007Z</time></trkpt><trkpt lat="45.58620459779963" lon="10.1293982212418"><ele>156.0</ele><time>2026-04-10T16:41:16.007Z</time></trkpt><trkpt lat="45.58625623002173" lon="10.129286465074252"><ele>156.0</ele><time>2026-04-10T16:41:19.007Z</time></trkpt><trkpt lat="45.586290654272574" lon="10.129208837929504"><ele>156.0</ele><time>2026-04-10T16:41:21.007Z</time></trkpt><trkpt lat="45.586327354798875" lon="10.129133905395246"><ele>156.0</ele><time>2026-04-10T16:41:23.007Z</time></trkpt><trkpt lat="45.58636496564931" lon="10.129061468108896"><ele>156.0</ele><time>2026-04-10T16:41:25.007Z</time></trkpt><trkpt lat="45.58640394942231" lon="10.128980370872174"><ele>155.85714285714286</ele><time>2026-04-10T16:41:27.007Z</time></trkpt><trkpt lat="45.58644778602795" lon="10.128902865182258"><ele>155.7142857142857</ele><time>2026-04-10T16:41:29.007Z</time></trkpt><trkpt lat="45.586506336001605" lon="10.128799727265388"><ele>155.57142857142856</ele><time>2026-04-10T16:41:32.007Z</time></trkpt><trkpt lat="45.58657121774765" lon="10.128701211102635"><ele>155.42857142857144</ele><time>2026-04-10T16:41:35.007Z</time></trkpt><trkpt lat="45.586613804746946" lon="10.12863233708188"><ele>155.28571428571428</ele><time>2026-04-10T16:41:37.007Z</time></trkpt><trkpt lat="45.586662042536986" lon="10.128572121311631"><ele>155.14285714285714</ele><time>2026-04-10T16:41:39.007Z</time></trkpt><trkpt lat="45.586707359989624" lon="10.128509651584231"><ele>155.0</ele><time>2026-04-10T16:41:41.007Z</time></trkpt><trkpt lat="45.58675629646219" lon="10.128450727763473"><ele>155.0</ele><time>2026-04-10T16:41:43.007Z</time></trkpt><trkpt lat="45.58680532025079" lon="10.128384847589569"><ele>155.0</ele><time>2026-04-10T16:41:45.007Z</time></trkpt><trkpt lat="45.58684489623716" lon="10.1283142101667"><ele>155.0</ele><time>2026-04-10T16:41:47.007Z</time></trkpt><trkpt lat="45.586911846592706" lon="10.12822424316727"><ele>155.0</ele><time>2026-04-10T16:41:50.007Z</time></trkpt><trkpt lat="45.58697765380457" lon="10.12813701888501"><ele>155.0</ele><time>2026-04-10T16:41:53.007Z</time></trkpt><trkpt lat="45.58701999216361" lon="10.128065685000184"><ele>155.0</ele><time>2026-04-10T16:41:55.007Z</time></trkpt><trkpt lat="45.5870755632673" lon="10.127957420046073"><ele>155.16666666666666</ele><time>2026-04-10T16:41:58.007Z</time></trkpt><trkpt lat="45.58713041157801" lon="10.127850275853534"><ele>155.33333333333331</ele><time>2026-04-10T16:42:01.007Z</time></trkpt><trkpt lat="45.587161614742065" lon="10.127769990883056"><ele>155.5</ele><time>2026-04-10T16:42:03.007Z</time></trkpt><trkpt lat="45.58720383582901" lon="10.12766114689037"><ele>155.66666666666666</ele><time>2026-04-10T16:42:06.007Z</time></trkpt><trkpt lat="45.5872474355086" lon="10.127553091905249"><ele>155.83333333333334</ele><time>2026-04-10T16:42:09.007Z</time></trkpt><trkpt lat="45.58729222025388" lon="10.12744744217889"><ele>156.0</ele><time>2026-04-10T16:42:12.007Z</time></trkpt><trkpt lat="45.58732757224932" lon="10.127334201816453"><ele>155.66666666666666</ele><time>2026-04-10T16:42:15.007Z</time></trkpt><trkpt lat="45.58734948396767" lon="10.127220434290527"><ele>155.33333333333334</ele><time>2026-04-10T16:42:18.007Z</time></trkpt><trkpt lat="45.587366970856806" lon="10.1271010171215"><ele>155.0</ele><time>2026-04-10T16:42:20.999Z</time></trkpt><trkpt lat="45.58737750016517" lon="10.1269812306365"><ele>154.66666666666669</ele><time>2026-04-10T16:42:23.999Z</time></trkpt><trkpt lat="45.587380670270356" lon="10.126857116441945"><ele>154.33333333333334</ele><time>2026-04-10T16:42:26.999Z</time></trkpt><trkpt lat="45.587383673689736" lon="10.126728395888907"><ele>154.0</ele><time>2026-04-10T16:42:29.999Z</time></trkpt><trkpt lat="45.5873828695836" lon="10.12660227303259"><ele>154.16666666666669</ele><time>2026-04-10T16:42:32.999Z</time></trkpt><trkpt lat="45.587385312895535" lon="10.126474734553947"><ele>154.33333333333334</ele><time>2026-04-10T16:42:35.999Z</time></trkpt><trkpt lat="45.58738431242873" lon="10.126355106048573"><ele>154.5</ele><time>2026-04-10T16:42:38.999Z</time></trkpt><trkpt lat="45.58738127899926" lon="10.126231980835552"><ele>154.66666666666666</ele><time>2026-04-10T16:42:41.999Z</time></trkpt><trkpt lat="45.58737894860544" lon="10.126112283949567"><ele>154.83333333333331</ele><time>2026-04-10T16:42:44.999Z</time></trkpt><trkpt lat="45.58738539618756" lon="10.125992121502696"><ele>155.0</ele><time>2026-04-10T16:42:47.999Z</time></trkpt><trkpt lat="45.58738340019578" lon="10.125873885840335"><ele>155.0</ele><time>2026-04-10T16:42:50.999Z</time></trkpt><trkpt lat="45.58738921492483" lon="10.125757123045842"><ele>155.0</ele><time>2026-04-10T16:42:53.999Z</time></trkpt><trkpt lat="45.58739030187665" lon="10.125644358481962"><ele>155.0</ele><time>2026-04-10T16:42:56.999Z</time></trkpt><trkpt lat="45.587392502252776" lon="10.12552385467223"><ele>155.0</ele><time>2026-04-10T16:42:59.999Z</time></trkpt><trkpt lat="45.587393545676086" lon="10.125408770592218"><ele>155.0</ele><time>2026-04-10T16:43:02.999Z</time></trkpt><trkpt lat="45.58739982821854" lon="10.125289186102705"><ele>155.0</ele><time>2026-04-10T16:43:05.999Z</time></trkpt><trkpt lat="45.587399826542445" lon="10.125168361748592"><ele>155.16666666666666</ele><time>2026-04-10T16:43:08.998Z</time></trkpt><trkpt lat="45.587401249981085" lon="10.125054513391138"><ele>155.33333333333331</ele><time>2026-04-10T16:43:11.999Z</time></trkpt><trkpt lat="45.58740146487616" lon="10.124944121648925"><ele>155.5</ele><time>2026-04-10T16:43:14.998Z</time></trkpt><trkpt lat="45.58740911634716" lon="10.124820610950932"><ele>155.66666666666666</ele><time>2026-04-10T16:43:17.999Z</time></trkpt><trkpt lat="45.58740841319207" lon="10.12469395122871"><ele>155.83333333333334</ele><time>2026-04-10T16:43:20.998Z</time></trkpt><trkpt lat="45.587420649028566" lon="10.12456856194086"><ele>156.0</ele><time>2026-04-10T16:43:23.998Z</time></trkpt><trkpt lat="45.587431607643694" lon="10.124453093281959"><ele>156.16666666666666</ele><time>2026-04-10T16:43:26.998Z</time></trkpt><trkpt lat="45.58743964772037" lon="10.124328650039633"><ele>156.33333333333334</ele><time>2026-04-10T16:43:29.998Z</time></trkpt><trkpt lat="45.58745262816215" lon="10.124210054711165"><ele>156.5</ele><time>2026-04-10T16:43:32.998Z</time></trkpt><trkpt lat="45.58747256166433" lon="10.124093222551313"><ele>156.66666666666669</ele><time>2026-04-10T16:43:35.998Z</time></trkpt><trkpt lat="45.58750068389505" lon="10.123977946350296"><ele>156.83333333333334</ele><time>2026-04-10T16:43:38.998Z</time></trkpt><trkpt lat="45.58754643229346" lon="10.123887075100559"><ele>157.0</ele><time>2026-04-10T16:43:41.998Z</time></trkpt><trkpt lat="45.587612648709516" lon="10.123796851777275"><ele>157.0</ele><time>2026-04-10T16:43:44.998Z</time></trkpt><trkpt lat="45.58767521591191" lon="10.123715458202852"><ele>157.0</ele><time>2026-04-10T16:43:47.998Z</time></trkpt><trkpt lat="45.58774053091194" lon="10.123638771452145"><ele>157.0</ele><time>2026-04-10T16:43:50.998Z</time></trkpt><trkpt lat="45.58781421488212" lon="10.123582455151421"><ele>157.0</ele><time>2026-04-10T16:43:53.998Z</time></trkpt><trkpt lat="45.587886154000294" lon="10.123531015828153"><ele>157.0</ele><time>2026-04-10T16:43:56.998Z</time></trkpt><trkpt lat="45.587953628416464" lon="10.12348568322847"><ele>157.0</ele><time>2026-04-10T16:43:59.999Z</time></trkpt><trkpt lat="45.58803224972033" lon="10.123442901448286"><ele>157.0</ele><time>2026-04-10T16:44:02.999Z</time></trkpt><trkpt lat="45.58811408871542" lon="10.123410951878073"><ele>157.0</ele><time>2026-04-10T16:44:05.999Z</time></trkpt><trkpt lat="45.58819498381015" lon="10.123384622400978"><ele>157.0</ele><time>2026-04-10T16:44:08.999Z</time></trkpt><trkpt lat="45.58827102096504" lon="10.12332041573574"><ele>157.0</ele><time>2026-04-10T16:44:11.999Z</time></trkpt><trkpt lat="45.58834008184299" lon="10.123258166570501"><ele>157.0</ele><time>2026-04-10T16:44:14.999Z</time></trkpt><trkpt lat="45.58840406427653" lon="10.12316426132044"><ele>157.0</ele><time>2026-04-10T16:44:17.999Z</time></trkpt><trkpt lat="45.5884849078813" lon="10.123100479100591"><ele>157.0</ele><time>2026-04-10T16:44:20.999Z</time></trkpt><trkpt lat="45.588551102667815" lon="10.123104744858407"><ele>157.0</ele><time>2026-04-10T16:44:22.999Z</time></trkpt><trkpt lat="45.58861885826284" lon="10.123109938342276"><ele>157.0</ele><time>2026-04-10T16:44:24.999Z</time></trkpt><trkpt lat="45.58871283976118" lon="10.123130579220204"><ele>157.0</ele><time>2026-04-10T16:44:27.999Z</time></trkpt><trkpt lat="45.588778481432115" lon="10.123153161880206"><ele>157.0</ele><time>2026-04-10T16:44:29.999Z</time></trkpt><trkpt lat="45.588869645356795" lon="10.123167809524219"><ele>157.0</ele><time>2026-04-10T16:44:32.999Z</time></trkpt><trkpt lat="45.58893505914581" lon="10.123178393946018"><ele>157.28571428571428</ele><time>2026-04-10T16:44:34.999Z</time></trkpt><trkpt lat="45.58899832659512" lon="10.123192853988092"><ele>157.57142857142856</ele><time>2026-04-10T16:44:36.999Z</time></trkpt><trkpt lat="45.58908866918857" lon="10.123217749977997"><ele>157.85714285714283</ele><time>2026-04-10T16:44:39.999Z</time></trkpt><trkpt lat="45.58915109798684" lon="10.123250569371832"><ele>158.14285714285714</ele><time>2026-04-10T16:44:41.999Z</time></trkpt><trkpt lat="45.5892192412426" lon="10.123262825031942"><ele>158.42857142857144</ele><time>2026-04-10T16:44:43.999Z</time></trkpt><trkpt lat="45.589282678851426" lon="10.12328400077349"><ele>158.7142857142857</ele><time>2026-04-10T16:44:45.999Z</time></trkpt><trkpt lat="45.58935835144177" lon="10.123345582654634"><ele>159.0</ele><time>2026-04-10T16:44:48.999Z</time></trkpt><trkpt lat="45.58943738626865" lon="10.123408107754493"><ele>159.0</ele><time>2026-04-10T16:44:51.999Z</time></trkpt><trkpt lat="45.58952661240544" lon="10.123444839477191"><ele>159.0</ele><time>2026-04-10T16:44:54.999Z</time></trkpt><trkpt lat="45.58958950020277" lon="10.123481150116191"><ele>159.0</ele><time>2026-04-10T16:44:56.999Z</time></trkpt><trkpt lat="45.58964925837396" lon="10.12351408507669"><ele>159.0</ele><time>2026-04-10T16:44:58.999Z</time></trkpt><trkpt lat="45.5897127375819" lon="10.123543572978653"><ele>159.0</ele><time>2026-04-10T16:45:00.999Z</time></trkpt><trkpt lat="45.58980589405093" lon="10.123582573699109"><ele>159.0</ele><time>2026-04-10T16:45:03.999Z</time></trkpt><trkpt lat="45.58986600747478" lon="10.123610065713173"><ele>159.0</ele><time>2026-04-10T16:45:05.999Z</time></trkpt><trkpt lat="45.58995057523003" lon="10.123658968890636"><ele>159.0</ele><time>2026-04-10T16:45:08.999Z</time></trkpt><trkpt lat="45.590010567781256" lon="10.12369125880629"><ele>159.0</ele><time>2026-04-10T16:45:11.998Z</time></trkpt><trkpt lat="45.59007229585115" lon="10.123724324784863"><ele>159.0</ele><time>2026-04-10T16:45:16.999Z</time></trkpt><trkpt lat="45.59012866219307" lon="10.12376452292373"><ele>159.0</ele><time>2026-04-10T16:45:21.999Z</time></trkpt><trkpt lat="45.59019800661926" lon="10.123809039740369"><ele>159.0</ele><time>2026-04-10T16:45:27.998Z</time></trkpt><trkpt lat="45.59026066263754" lon="10.123833939254169"><ele>159.0</ele><time>2026-04-10T16:45:32.998Z</time></trkpt><trkpt lat="45.59032261922402" lon="10.123875112718506"><ele>159.14285714285714</ele><time>2026-04-10T16:45:40.998Z</time></trkpt><trkpt lat="45.590390069882815" lon="10.123900047331603"><ele>159.2857142857143</ele><time>2026-04-10T16:45:47.998Z</time></trkpt><trkpt lat="45.59046207135098" lon="10.123923248630328"><ele>159.42857142857144</ele><time>2026-04-10T16:45:53.998Z</time></trkpt><trkpt lat="45.590528439352546" lon="10.123939709905873"><ele>159.57142857142856</ele><time>2026-04-10T16:45:59.998Z</time></trkpt><trkpt lat="45.59059157237352" lon="10.123948666784557"><ele>159.71428571428572</ele><time>2026-04-10T16:46:04.999Z</time></trkpt><trkpt lat="45.590655048040254" lon="10.123948546792763"><ele>159.85714285714286</ele><time>2026-04-10T16:46:09.999Z</time></trkpt><trkpt lat="45.5907265977415" lon="10.123956694751188"><ele>160.0</ele><time>2026-04-10T16:46:15.999Z</time></trkpt><trkpt lat="45.59079850697877" lon="10.12394689129699"><ele>160.0</ele><time>2026-04-10T16:46:21.999Z</time></trkpt><trkpt lat="45.59086273446488" lon="10.123947199293415"><ele>160.0</ele><time>2026-04-10T16:46:26.999Z</time></trkpt><trkpt lat="45.590925590402065" lon="10.123934024845395"><ele>160.0</ele><time>2026-04-10T16:46:31.999Z</time></trkpt><trkpt lat="45.590998903785795" lon="10.12393272750128"><ele>160.0</ele><time>2026-04-10T16:46:37.999Z</time></trkpt><trkpt lat="45.59107092025054" lon="10.123930434979528"><ele>160.0</ele><time>2026-04-10T16:46:44.999Z</time></trkpt><trkpt lat="45.59114597246515" lon="10.123935589329806"><ele>160.0</ele><time>2026-04-10T16:46:51.999Z</time></trkpt><trkpt lat="45.591241679146115" lon="10.123939266378171"><ele>160.0</ele><time>2026-04-10T16:46:55.999Z</time></trkpt><trkpt lat="45.591306726046724" lon="10.123940020130524"><ele>160.0</ele><time>2026-04-10T16:46:57.999Z</time></trkpt><trkpt lat="45.591387800386535" lon="10.123956590360006"><ele>160.0</ele><time>2026-04-10T16:47:00.999Z</time></trkpt><trkpt lat="45.59146688817315" lon="10.123965874946924"><ele>160.0</ele><time>2026-04-10T16:47:03.999Z</time></trkpt><trkpt lat="45.591529640245085" lon="10.123982188193843"><ele>160.0</ele><time>2026-04-10T16:47:05.999Z</time></trkpt><trkpt lat="45.59159634902295" lon="10.124002127033494"><ele>160.0</ele><time>2026-04-10T16:47:07.999Z</time></trkpt><trkpt lat="45.59166768011425" lon="10.124027495185327"><ele>160.0</ele><time>2026-04-10T16:47:09.999Z</time></trkpt><trkpt lat="45.5917346966287" lon="10.124049048111708"><ele>160.0</ele><time>2026-04-10T16:47:11.999Z</time></trkpt><trkpt lat="45.59180152195669" lon="10.12406137568906"><ele>160.0</ele><time>2026-04-10T16:47:13.999Z</time></trkpt><trkpt lat="45.59186541003226" lon="10.124078968831611"><ele>160.0</ele><time>2026-04-10T16:47:15.999Z</time></trkpt><trkpt lat="45.591934997491926" lon="10.12410848391038"><ele>160.0</ele><time>2026-04-10T16:47:17.999Z</time></trkpt><trkpt lat="45.59203221837644" lon="10.12413931375188"><ele>160.0</ele><time>2026-04-10T16:47:20.999Z</time></trkpt><trkpt lat="45.59210389080351" lon="10.124162812674838"><ele>160.0</ele><time>2026-04-10T16:47:22.999Z</time></trkpt><trkpt lat="45.592168922763314" lon="10.124169792337186"><ele>160.0</ele><time>2026-04-10T16:47:24.999Z</time></trkpt><trkpt lat="45.592235020405504" lon="10.124197926060482"><ele>160.0</ele><time>2026-04-10T16:47:26.999Z</time></trkpt><trkpt lat="45.592300467324804" lon="10.124213694198543"><ele>160.0</ele><time>2026-04-10T16:47:28.999Z</time></trkpt><trkpt lat="45.59237761626193" lon="10.1242342621231"><ele>160.0</ele><time>2026-04-10T16:47:30.999Z</time></trkpt><trkpt lat="45.59244875964455" lon="10.124247654612835"><ele>160.0</ele><time>2026-04-10T16:47:32.999Z</time></trkpt><trkpt lat="45.592527336494705" lon="10.124261832199412"><ele>160.0</ele><time>2026-04-10T16:47:34.999Z</time></trkpt><trkpt lat="45.592609045018506" lon="10.12427257001507"><ele>160.0</ele><time>2026-04-10T16:47:36.999Z</time></trkpt><trkpt lat="45.592683847682416" lon="10.124289060740237"><ele>160.0</ele><time>2026-04-10T16:47:38.999Z</time></trkpt><trkpt lat="45.59275988520733" lon="10.124306909200016"><ele>160.0</ele><time>2026-04-10T16:47:40.999Z</time></trkpt><trkpt lat="45.59283507444653" lon="10.124314635934471"><ele>160.0</ele><time>2026-04-10T16:47:42.999Z</time></trkpt><trkpt lat="45.59290844940064" lon="10.124311547373324"><ele>160.0</ele><time>2026-04-10T16:47:44.999Z</time></trkpt><trkpt lat="45.592978140156426" lon="10.124334877141457"><ele>160.0</ele><time>2026-04-10T16:47:46.999Z</time></trkpt><trkpt lat="45.593041421864086" lon="10.124341066280248"><ele>160.0</ele><time>2026-04-10T16:47:48.999Z</time></trkpt><trkpt lat="45.593117018124914" lon="10.124362129006121"><ele>160.0</ele><time>2026-04-10T16:47:50.999Z</time></trkpt><trkpt lat="45.59314718494565" lon="10.124450660785968"><ele>160.0</ele><time>2026-04-10T16:47:52.999Z</time></trkpt><trkpt lat="45.59313661188198" lon="10.124545741535279"><ele>160.14285714285714</ele><time>2026-04-10T16:47:54.999Z</time></trkpt><trkpt lat="45.59313754882624" lon="10.12465182424285"><ele>160.28571428571428</ele><time>2026-04-10T16:47:56.999Z</time></trkpt><trkpt lat="45.593138566250474" lon="10.124751505545072"><ele>160.42857142857144</ele><time>2026-04-10T16:47:58.999Z</time></trkpt><trkpt lat="45.59313477707868" lon="10.124854193907069"><ele>160.57142857142856</ele><time>2026-04-10T16:48:00.999Z</time></trkpt><trkpt lat="45.59313157290712" lon="10.124961481722035"><ele>160.71428571428572</ele><time>2026-04-10T16:48:02.999Z</time></trkpt><trkpt lat="45.59314134554921" lon="10.12507164557368"><ele>160.85714285714286</ele><time>2026-04-10T16:48:04.999Z</time></trkpt><trkpt lat="45.593136755799186" lon="10.12516504308747"><ele>161.0</ele><time>2026-04-10T16:48:06.999Z</time></trkpt><trkpt lat="45.593138629668246" lon="10.125266800385287"><ele>161.0</ele><time>2026-04-10T16:48:08.999Z</time></trkpt><trkpt lat="45.59313011577506" lon="10.125359827880557"><ele>161.0</ele><time>2026-04-10T16:48:10.999Z</time></trkpt><trkpt lat="45.593129894719986" lon="10.125459915850268"><ele>161.0</ele><time>2026-04-10T16:48:12.999Z</time></trkpt><trkpt lat="45.593137210832104" lon="10.125566169632853"><ele>161.0</ele><time>2026-04-10T16:48:14.999Z</time></trkpt><trkpt lat="45.593132905255885" lon="10.125659119923787"><ele>161.0</ele><time>2026-04-10T16:48:16.999Z</time></trkpt><trkpt lat="45.593123901860636" lon="10.125766306844676"><ele>161.0</ele><time>2026-04-10T16:48:18.999Z</time></trkpt><trkpt lat="45.59312844551265" lon="10.12585848886052"><ele>161.0</ele><time>2026-04-10T16:48:20.999Z</time></trkpt><trkpt lat="45.59313092258568" lon="10.12596635801076"><ele>161.0</ele><time>2026-04-10T16:48:22.999Z</time></trkpt><trkpt lat="45.593123541773814" lon="10.126062010705304"><ele>161.0</ele><time>2026-04-10T16:48:24.999Z</time></trkpt><trkpt lat="45.593132144045214" lon="10.126165567696827"><ele>161.0</ele><time>2026-04-10T16:48:26.999Z</time></trkpt><trkpt lat="45.59313139930926" lon="10.126262960017057"><ele>161.0</ele><time>2026-04-10T16:48:28.999Z</time></trkpt><trkpt lat="45.59313896828849" lon="10.126361903716031"><ele>161.0</ele><time>2026-04-10T16:48:30.999Z</time></trkpt><trkpt lat="45.59313035238559" lon="10.126459545203979"><ele>161.0</ele><time>2026-04-10T16:48:32.999Z</time></trkpt><trkpt lat="45.59312715592391" lon="10.126550086302158"><ele>161.0</ele><time>2026-04-10T16:48:34.999Z</time></trkpt><trkpt lat="45.59311952116408" lon="10.126655528384525"><ele>161.0</ele><time>2026-04-10T16:48:40.999Z</time></trkpt><trkpt lat="45.59311804712933" lon="10.126748550277156"><ele>161.0</ele><time>2026-04-10T16:48:45.999Z</time></trkpt><trkpt lat="45.59311710549506" lon="10.126854036213683"><ele>161.0</ele><time>2026-04-10T16:48:51.999Z</time></trkpt><trkpt lat="45.59311261188692" lon="10.126944754459977"><ele>161.0</ele><time>2026-04-10T16:48:57.999Z</time></trkpt><trkpt lat="45.593108472420454" lon="10.127051293681571"><ele>161.0</ele><time>2026-04-10T16:49:03.999Z</time></trkpt><trkpt lat="45.59310822276103" lon="10.127148353248112"><ele>161.0</ele><time>2026-04-10T16:49:09.999Z</time></trkpt><trkpt lat="45.593109922375106" lon="10.127252430883686"><ele>161.0</ele><time>2026-04-10T16:49:15.999Z</time></trkpt><trkpt lat="45.593109349368504" lon="10.12734572304205"><ele>160.57142857142858</ele><time>2026-04-10T16:49:21.999Z</time></trkpt><trkpt lat="45.593105085675475" lon="10.127450977734238"><ele>160.14285714285714</ele><time>2026-04-10T16:49:28Z</time></trkpt><trkpt lat="45.59310452579228" lon="10.127548579182681"><ele>159.71428571428572</ele><time>2026-04-10T16:49:33.999Z</time></trkpt><trkpt lat="45.59310680733203" lon="10.127658426281164"><ele>159.28571428571428</ele><time>2026-04-10T16:49:39.999Z</time></trkpt><trkpt lat="45.593108438746896" lon="10.127753367938315"><ele>158.85714285714286</ele><time>2026-04-10T16:49:44.999Z</time></trkpt><trkpt lat="45.59310511782246" lon="10.127865582698298"><ele>158.42857142857144</ele><time>2026-04-10T16:49:50.999Z</time></trkpt><trkpt lat="45.59309829449033" lon="10.127972449442398"><ele>158.0</ele><time>2026-04-10T16:49:56.999Z</time></trkpt><trkpt lat="45.59310309784806" lon="10.128075008728281"><ele>158.0</ele><time>2026-04-10T16:50:02.999Z</time></trkpt><trkpt lat="45.59309976323337" lon="10.128183435881374"><ele>158.0</ele><time>2026-04-10T16:50:06.999Z</time></trkpt><trkpt lat="45.59309909090029" lon="10.128277418106338"><ele>158.0</ele><time>2026-04-10T16:50:09.999Z</time></trkpt><trkpt lat="45.59309638526862" lon="10.128413968033676"><ele>158.0</ele><time>2026-04-10T16:50:11.999Z</time></trkpt><trkpt lat="45.593097926152325" lon="10.128531332987531"><ele>158.0</ele><time>2026-04-10T16:50:13.999Z</time></trkpt><trkpt lat="45.59309798387635" lon="10.128639075245413"><ele>158.0</ele><time>2026-04-10T16:50:15.999Z</time></trkpt><trkpt lat="45.59308883623762" lon="10.12874092197909"><ele>158.0</ele><time>2026-04-10T16:50:17.999Z</time></trkpt><trkpt lat="45.5930964026707" lon="10.12886141153101"><ele>158.0</ele><time>2026-04-10T16:50:19.999Z</time></trkpt><trkpt lat="45.5930983666994" lon="10.128975052500934"><ele>158.0</ele><time>2026-04-10T16:50:21.999Z</time></trkpt><trkpt lat="45.59310278189259" lon="10.129082638051496"><ele>158.0</ele><time>2026-04-10T16:50:23.999Z</time></trkpt><trkpt lat="45.59309667867165" lon="10.12918557318685"><ele>158.0</ele><time>2026-04-10T16:50:25.999Z</time></trkpt><trkpt lat="45.593099866124426" lon="10.129290626449768"><ele>158.0</ele><time>2026-04-10T16:50:27.999Z</time></trkpt><trkpt lat="45.59309529294519" lon="10.1293945953587"><ele>158.00000000000003</ele><time>2026-04-10T16:50:29.999Z</time></trkpt><trkpt lat="45.593096562083566" lon="10.12949160044371"><ele>158.0</ele><time>2026-04-10T16:50:31.999Z</time></trkpt><trkpt lat="45.59309993315306" lon="10.129594310480169"><ele>158.0</ele><time>2026-04-10T16:50:33.999Z</time></trkpt><trkpt lat="45.59309459131637" lon="10.129691917291145"><ele>158.0</ele><time>2026-04-10T16:50:35.999Z</time></trkpt><trkpt lat="45.59308909231229" lon="10.129802606022148"><ele>158.0</ele><time>2026-04-10T16:50:37.999Z</time></trkpt><trkpt lat="45.593080369701816" lon="10.129913841064523"><ele>158.00000000000003</ele><time>2026-04-10T16:50:39.999Z</time></trkpt><trkpt lat="45.59308712441825" lon="10.130017416144883"><ele>158.0</ele><time>2026-04-10T16:50:41.999Z</time></trkpt><trkpt lat="45.59308921944062" lon="10.130128117746374"><ele>158.0</ele><time>2026-04-10T16:50:43.999Z</time></trkpt><trkpt lat="45.593086411332585" lon="10.13023558613566"><ele>158.0</ele><time>2026-04-10T16:50:45.999Z</time></trkpt><trkpt lat="45.59308800582652" lon="10.130339914239867"><ele>158.0</ele><time>2026-04-10T16:50:47.999Z</time></trkpt><trkpt lat="45.59307539779962" lon="10.130436888994248"><ele>158.0</ele><time>2026-04-10T16:50:50Z</time></trkpt><trkpt lat="45.59306887897448" lon="10.130565380076263"><ele>158.0</ele><time>2026-04-10T16:50:52Z</time></trkpt><trkpt lat="45.59306535731602" lon="10.130670925747381"><ele>158.0</ele><time>2026-04-10T16:50:54Z</time></trkpt><trkpt lat="45.5930616057086" lon="10.130771330355467"><ele>157.83333333333331</ele><time>2026-04-10T16:50:56Z</time></trkpt><trkpt lat="45.593040353879104" lon="10.130877511748023"><ele>157.66666666666666</ele><time>2026-04-10T16:50:58Z</time></trkpt><trkpt lat="45.592958720880205" lon="10.130931272337952"><ele>157.5</ele><time>2026-04-10T16:51:01Z</time></trkpt><trkpt lat="45.59289289929123" lon="10.130930882153335"><ele>157.33333333333334</ele><time>2026-04-10T16:51:03Z</time></trkpt><trkpt lat="45.59282745009844" lon="10.130929006666697"><ele>157.16666666666669</ele><time>2026-04-10T16:51:05Z</time></trkpt><trkpt lat="45.592759636849166" lon="10.130920525434213"><ele>157.0</ele><time>2026-04-10T16:51:07Z</time></trkpt><trkpt lat="45.592666104966014" lon="10.130939115885484"><ele>157.0</ele><time>2026-04-10T16:51:10Z</time></trkpt><trkpt lat="45.59260923445954" lon="10.130983931105305"><ele>157.0</ele><time>2026-04-10T16:51:12Z</time></trkpt><trkpt lat="45.59255496561696" lon="10.13103870793343"><ele>157.0</ele><time>2026-04-10T16:51:14Z</time></trkpt><trkpt lat="45.59249105036617" lon="10.131155324473056"><ele>157.0</ele><time>2026-04-10T16:51:17Z</time></trkpt><trkpt lat="45.59246002801133" lon="10.13126202805943"><ele>157.0</ele><time>2026-04-10T16:51:20Z</time></trkpt><trkpt lat="45.59241228613505" lon="10.131347406323819"><ele>157.0</ele><time>2026-04-10T16:51:23Z</time></trkpt><trkpt lat="45.59232950509439" lon="10.131305729297681"><ele>157.0</ele><time>2026-04-10T16:51:26Z</time></trkpt><trkpt lat="45.592247237087314" lon="10.131249961450425"><ele>157.0</ele><time>2026-04-10T16:51:29Z</time></trkpt><trkpt lat="45.59215804839106" lon="10.131203708279287"><ele>157.0</ele><time>2026-04-10T16:51:32Z</time></trkpt><trkpt lat="45.59209325513514" lon="10.131187064120015"><ele>157.0</ele><time>2026-04-10T16:51:34Z</time></trkpt><trkpt lat="45.59200718126967" lon="10.131169908872758"><ele>157.0</ele><time>2026-04-10T16:51:36.999Z</time></trkpt><trkpt lat="45.59191039081471" lon="10.131157706745507"><ele>157.0</ele><time>2026-04-10T16:51:39.999Z</time></trkpt><trkpt lat="45.591845420630435" lon="10.13114184269487"><ele>157.0</ele><time>2026-04-10T16:51:42Z</time></trkpt><trkpt lat="45.591782736876276" lon="10.131117952926624"><ele>157.0</ele><time>2026-04-10T16:51:44Z</time></trkpt><trkpt lat="45.59171339137215" lon="10.13110500509186"><ele>157.0</ele><time>2026-04-10T16:51:46Z</time></trkpt><trkpt lat="45.59161848176607" lon="10.131089220582913"><ele>157.0</ele><time>2026-04-10T16:51:49Z</time></trkpt><trkpt lat="45.59154340665681" lon="10.13108751794871"><ele>157.0</ele><time>2026-04-10T16:51:52Z</time></trkpt><trkpt lat="45.59146864748313" lon="10.131075604789462"><ele>157.0</ele><time>2026-04-10T16:51:57Z</time></trkpt><trkpt lat="45.59139694181823" lon="10.13105767864687"><ele>156.99999999999997</ele><time>2026-04-10T16:52:03Z</time></trkpt><trkpt lat="45.5913222892737" lon="10.131036732766054"><ele>157.0</ele><time>2026-04-10T16:52:09Z</time></trkpt><trkpt lat="45.59125231219452" lon="10.131033454381702"><ele>157.0</ele><time>2026-04-10T16:52:15Z</time></trkpt><trkpt lat="45.591186031218804" lon="10.13103115396115"><ele>157.0</ele><time>2026-04-10T16:52:20Z</time></trkpt><trkpt lat="45.59111162900279" lon="10.131021098720556"><ele>157.0</ele><time>2026-04-10T16:52:26Z</time></trkpt><trkpt lat="45.59104179318756" lon="10.131002980488246"><ele>156.99999999999997</ele><time>2026-04-10T16:52:32Z</time></trkpt><trkpt lat="45.590978745823755" lon="10.130979970369204"><ele>157.0</ele><time>2026-04-10T16:52:38Z</time></trkpt><trkpt lat="45.5909107150132" lon="10.130973528936364"><ele>156.7142857142857</ele><time>2026-04-10T16:52:43Z</time></trkpt><trkpt lat="45.59084652905005" lon="10.130959773159077"><ele>156.42857142857142</ele><time>2026-04-10T16:52:48Z</time></trkpt><trkpt lat="45.590776344474904" lon="10.130946399077104"><ele>156.14285714285714</ele><time>2026-04-10T16:52:54Z</time></trkpt><trkpt lat="45.59070376014799" lon="10.130944511534778"><ele>155.85714285714283</ele><time>2026-04-10T16:52:59Z</time></trkpt><trkpt lat="45.59063923487283" lon="10.130937200045134"><ele>155.57142857142856</ele><time>2026-04-10T16:53:04Z</time></trkpt><trkpt lat="45.59057094328112" lon="10.130918202997693"><ele>155.28571428571428</ele><time>2026-04-10T16:53:10Z</time></trkpt><trkpt lat="45.59049679839309" lon="10.130907214887818"><ele>155.0</ele><time>2026-04-10T16:53:16Z</time></trkpt><trkpt lat="45.59042277374205" lon="10.13089013588648"><ele>155.0</ele><time>2026-04-10T16:53:21Z</time></trkpt><trkpt lat="45.590361161568566" lon="10.130869122001643"><ele>155.0</ele><time>2026-04-10T16:53:24Z</time></trkpt><trkpt lat="45.59026081894202" lon="10.130853111710598"><ele>155.0</ele><time>2026-04-10T16:53:27Z</time></trkpt><trkpt lat="45.59018272816756" lon="10.130860313768354"><ele>155.0</ele><time>2026-04-10T16:53:29Z</time></trkpt><trkpt lat="45.59010095928702" lon="10.130855518132595"><ele>155.0</ele><time>2026-04-10T16:53:31Z</time></trkpt><trkpt lat="45.59002819301678" lon="10.130851761077048"><ele>155.0</ele><time>2026-04-10T16:53:33Z</time></trkpt><trkpt lat="45.589954181368036" lon="10.130841385367468"><ele>155.0</ele><time>2026-04-10T16:53:35Z</time></trkpt><trkpt lat="45.58987783479173" lon="10.130850298007708"><ele>155.0</ele><time>2026-04-10T16:53:36.999Z</time></trkpt><trkpt lat="45.589806316656315" lon="10.130855815381242"><ele>155.0</ele><time>2026-04-10T16:53:39Z</time></trkpt><trkpt lat="45.589736165714044" lon="10.13084973123235"><ele>155.0</ele><time>2026-04-10T16:53:41Z</time></trkpt><trkpt lat="45.589664270767244" lon="10.130849481055352"><ele>155.0</ele><time>2026-04-10T16:53:43Z</time></trkpt><trkpt lat="45.5895977279647" lon="10.130845334684949"><ele>155.0</ele><time>2026-04-10T16:53:45Z</time></trkpt><trkpt lat="45.589529617554525" lon="10.130843481222987"><ele>155.0</ele><time>2026-04-10T16:53:47Z</time></trkpt><trkpt lat="45.58945268848136" lon="10.130849311888403"><ele>154.71428571428572</ele><time>2026-04-10T16:53:48.999Z</time></trkpt><trkpt lat="45.589381382329336" lon="10.130853823502509"><ele>154.42857142857142</ele><time>2026-04-10T16:53:50.999Z</time></trkpt><trkpt lat="45.58930431771132" lon="10.130863276776584"><ele>154.14285714285714</ele><time>2026-04-10T16:53:52.999Z</time></trkpt><trkpt lat="45.58922989577345" lon="10.130865012019319"><ele>153.85714285714286</ele><time>2026-04-10T16:53:55Z</time></trkpt><trkpt lat="45.58915925166322" lon="10.130861411580751"><ele>153.57142857142858</ele><time>2026-04-10T16:53:57Z</time></trkpt><trkpt lat="45.58908176736994" lon="10.13086111800546"><ele>153.28571428571428</ele><time>2026-04-10T16:53:59Z</time></trkpt><trkpt lat="45.589010191586894" lon="10.130848824205545"><ele>153.0</ele><time>2026-04-10T16:54:01Z</time></trkpt><trkpt lat="45.58894258387936" lon="10.130851727050041"><ele>153.0</ele><time>2026-04-10T16:54:03Z</time></trkpt><trkpt lat="45.58887000329732" lon="10.130855609615534"><ele>153.0</ele><time>2026-04-10T16:54:05Z</time></trkpt><trkpt lat="45.58879851955682" lon="10.130859206308306"><ele>153.0</ele><time>2026-04-10T16:54:07Z</time></trkpt><trkpt lat="45.58873071173528" lon="10.13086577682652"><ele>153.0</ele><time>2026-04-10T16:54:09Z</time></trkpt><trkpt lat="45.58865556330393" lon="10.130877157681745"><ele>153.0</ele><time>2026-04-10T16:54:11Z</time></trkpt><trkpt lat="45.58858399759527" lon="10.130877515024034"><ele>153.0</ele><time>2026-04-10T16:54:13Z</time></trkpt><trkpt lat="45.58851825383534" lon="10.1308824514786"><ele>153.0</ele><time>2026-04-10T16:54:15Z</time></trkpt><trkpt lat="45.5884488067711" lon="10.130880651928766"><ele>153.14285714285714</ele><time>2026-04-10T16:54:17Z</time></trkpt><trkpt lat="45.58838126459593" lon="10.130886356264858"><ele>153.28571428571428</ele><time>2026-04-10T16:54:19Z</time></trkpt><trkpt lat="45.588309684216206" lon="10.130894813612713"><ele>153.42857142857144</ele><time>2026-04-10T16:54:21Z</time></trkpt><trkpt lat="45.588241815174456" lon="10.130906805704896"><ele>153.57142857142856</ele><time>2026-04-10T16:54:23Z</time></trkpt><trkpt lat="45.58817782762035" lon="10.130913257209821"><ele>153.71428571428572</ele><time>2026-04-10T16:54:25Z</time></trkpt><trkpt lat="45.588112079715835" lon="10.130910144589595"><ele>153.85714285714286</ele><time>2026-04-10T16:54:27Z</time></trkpt><trkpt lat="45.58804537510027" lon="10.130919813221954"><ele>154.0</ele><time>2026-04-10T16:54:29Z</time></trkpt><trkpt lat="45.58795274077942" lon="10.130923683107094"><ele>154.0</ele><time>2026-04-10T16:54:32Z</time></trkpt><trkpt lat="45.58786284380183" lon="10.130921731937073"><ele>154.0</ele><time>2026-04-10T16:54:35Z</time></trkpt><trkpt lat="45.58779820454349" lon="10.130917048629943"><ele>154.0</ele><time>2026-04-10T16:54:37Z</time></trkpt><trkpt lat="45.58773423807845" lon="10.130919895262185"><ele>154.0</ele><time>2026-04-10T16:54:39Z</time></trkpt><trkpt lat="45.587670058193666" lon="10.130914449979056"><ele>154.0</ele><time>2026-04-10T16:54:41Z</time></trkpt><trkpt lat="45.58758005702981" lon="10.130905527852754"><ele>154.0</ele><time>2026-04-10T16:54:44Z</time></trkpt><trkpt lat="45.58751667429412" lon="10.130899871805694"><ele>154.0</ele><time>2026-04-10T16:54:46Z</time></trkpt><trkpt lat="45.58745124257825" lon="10.130894407989766"><ele>154.0</ele><time>2026-04-10T16:54:48Z</time></trkpt><trkpt lat="45.58738777644953" lon="10.130887831533673"><ele>154.0</ele><time>2026-04-10T16:54:50Z</time></trkpt><trkpt lat="45.58732100629624" lon="10.1308891928944"><ele>154.0</ele><time>2026-04-10T16:54:52Z</time></trkpt><trkpt lat="45.58725774318644" lon="10.13088739726293"><ele>154.0</ele><time>2026-04-10T16:54:54Z</time></trkpt><trkpt lat="45.58717360028437" lon="10.130874239177974"><ele>154.0</ele><time>2026-04-10T16:54:57Z</time></trkpt><trkpt lat="45.58709279529134" lon="10.130862911585522"><ele>154.0</ele><time>2026-04-10T16:55:00Z</time></trkpt><trkpt lat="45.58702879651418" lon="10.130857013714367"><ele>154.0</ele><time>2026-04-10T16:55:02Z</time></trkpt><trkpt lat="45.58696413107304" lon="10.13085691850409"><ele>154.0</ele><time>2026-04-10T16:55:04Z</time></trkpt><trkpt lat="45.58688744711975" lon="10.130852721810832"><ele>154.0</ele><time>2026-04-10T16:55:06Z</time></trkpt><trkpt lat="45.58681807765555" lon="10.130841531060065"><ele>154.0</ele><time>2026-04-10T16:55:08Z</time></trkpt><trkpt lat="45.586752893570804" lon="10.130844605095511"><ele>154.0</ele><time>2026-04-10T16:55:12Z</time></trkpt><trkpt lat="45.58668402697825" lon="10.1308443231922"><ele>154.0</ele><time>2026-04-10T16:55:17Z</time></trkpt><trkpt lat="45.586613058730755" lon="10.130821815956793"><ele>154.0</ele><time>2026-04-10T16:55:23Z</time></trkpt><trkpt lat="45.58654792592879" lon="10.130788245613841"><ele>154.0</ele><time>2026-04-10T16:55:29Z</time></trkpt><trkpt lat="45.586467421347365" lon="10.13076647290946"><ele>154.0</ele><time>2026-04-10T16:55:35Z</time></trkpt><trkpt lat="45.58640269583853" lon="10.130745805242094"><ele>154.0</ele><time>2026-04-10T16:55:40Z</time></trkpt><trkpt lat="45.5863378491856" lon="10.130719575753142"><ele>154.0</ele><time>2026-04-10T16:55:45Z</time></trkpt><trkpt lat="45.586272992117074" lon="10.130702254543134"><ele>154.0</ele><time>2026-04-10T16:55:50Z</time></trkpt><trkpt lat="45.586204290542625" lon="10.130680500450573"><ele>154.0</ele><time>2026-04-10T16:55:55Z</time></trkpt><trkpt lat="45.586141514311684" lon="10.130652144559482"><ele>154.0</ele><time>2026-04-10T16:56:00Z</time></trkpt><trkpt lat="45.586072718634995" lon="10.13061176644989"><ele>154.0</ele><time>2026-04-10T16:56:06Z</time></trkpt><trkpt lat="45.58600444968618" lon="10.130590090287184"><ele>154.28571428571428</ele><time>2026-04-10T16:56:11Z</time></trkpt><trkpt lat="45.585935196528034" lon="10.130569727368758"><ele>154.57142857142856</ele><time>2026-04-10T16:56:16Z</time></trkpt><trkpt lat="45.5858745281479" lon="10.130542496538544"><ele>154.85714285714286</ele><time>2026-04-10T16:56:21Z</time></trkpt><trkpt lat="45.58580239849682" lon="10.130513525945789"><ele>155.14285714285714</ele><time>2026-04-10T16:56:26Z</time></trkpt><trkpt lat="45.58573559525414" lon="10.130497294355989"><ele>155.42857142857142</ele><time>2026-04-10T16:56:31Z</time></trkpt><trkpt lat="45.585668125983005" lon="10.130543589079085"><ele>155.71428571428572</ele><time>2026-04-10T16:56:37Z</time></trkpt><trkpt lat="45.585614643939394" lon="10.130603748264758"><ele>156.0</ele><time>2026-04-10T16:56:41.001Z</time></trkpt><trkpt lat="45.585550447584325" lon="10.130688116369893"><ele>155.66666666666666</ele><time>2026-04-10T16:56:45.001Z</time></trkpt><trkpt lat="45.58548751653262" lon="10.13077089323682"><ele>155.33333333333334</ele><time>2026-04-10T16:56:47.001Z</time></trkpt><trkpt lat="45.58544218033319" lon="10.130860915486338"><ele>155.0</ele><time>2026-04-10T16:56:49.001Z</time></trkpt><trkpt lat="45.58539214353399" lon="10.130934168229444"><ele>154.66666666666669</ele><time>2026-04-10T16:56:51.001Z</time></trkpt><trkpt lat="45.58534845174445" lon="10.131019806965526"><ele>154.33333333333334</ele><time>2026-04-10T16:56:53.001Z</time></trkpt><trkpt lat="45.585284005297474" lon="10.131117967086952"><ele>154.0</ele><time>2026-04-10T16:56:55.001Z</time></trkpt><trkpt lat="45.58523586473935" lon="10.131200794487771"><ele>154.0</ele><time>2026-04-10T16:56:57.001Z</time></trkpt><trkpt lat="45.58517820132538" lon="10.131278366909466"><ele>154.0</ele><time>2026-04-10T16:56:59.001Z</time></trkpt><trkpt lat="45.58512139746457" lon="10.131339690226554"><ele>154.0</ele><time>2026-04-10T16:57:01.001Z</time></trkpt><trkpt lat="45.585066525549514" lon="10.131433930468338"><ele>154.0</ele><time>2026-04-10T16:57:03.001Z</time></trkpt><trkpt lat="45.585009632238005" lon="10.131514586532608"><ele>154.0</ele><time>2026-04-10T16:57:05.001Z</time></trkpt><trkpt lat="45.58495586501021" lon="10.131586720683169"><ele>154.0</ele><time>2026-04-10T16:57:07.001Z</time></trkpt><trkpt lat="45.584898795105715" lon="10.131670788912471"><ele>154.0</ele><time>2026-04-10T16:57:09.001Z</time></trkpt><trkpt lat="45.58484188000618" lon="10.131736825419877"><ele>154.0</ele><time>2026-04-10T16:57:11.001Z</time></trkpt><trkpt lat="45.58478825952458" lon="10.131821347592705"><ele>154.0</ele><time>2026-04-10T16:57:13.001Z</time></trkpt><trkpt lat="45.58473611813967" lon="10.131896975819894"><ele>154.0</ele><time>2026-04-10T16:57:15.001Z</time></trkpt><trkpt lat="45.584686217311514" lon="10.13196221597234"><ele>154.0</ele><time>2026-04-10T16:57:17.001Z</time></trkpt><trkpt lat="45.584637256199535" lon="10.132041927292576"><ele>154.0</ele><time>2026-04-10T16:57:19.001Z</time></trkpt><trkpt lat="45.58458827678855" lon="10.132117088739154"><ele>154.0</ele><time>2026-04-10T16:57:21.001Z</time></trkpt><trkpt lat="45.58453668854486" lon="10.13218916462944"><ele>153.85714285714286</ele><time>2026-04-10T16:57:23.001Z</time></trkpt><trkpt lat="45.58448996596851" lon="10.132266320874171"><ele>153.71428571428572</ele><time>2026-04-10T16:57:25.001Z</time></trkpt><trkpt lat="45.58444351637828" lon="10.13234284613654"><ele>153.57142857142856</ele><time>2026-04-10T16:57:27.001Z</time></trkpt><trkpt lat="45.58439822702158" lon="10.132425041298879"><ele>153.42857142857144</ele><time>2026-04-10T16:57:29.001Z</time></trkpt><trkpt lat="45.58434208519506" lon="10.132495366181441"><ele>153.28571428571428</ele><time>2026-04-10T16:57:31.001Z</time></trkpt><trkpt lat="45.58428967370948" lon="10.132565666119982"><ele>153.14285714285714</ele><time>2026-04-10T16:57:33.001Z</time></trkpt><trkpt lat="45.58424282720336" lon="10.132635842562031"><ele>153.0</ele><time>2026-04-10T16:57:35.001Z</time></trkpt><trkpt lat="45.58419510286194" lon="10.132696898181859"><ele>153.0</ele><time>2026-04-10T16:57:37.001Z</time></trkpt><trkpt lat="45.584151821825564" lon="10.132763124636947"><ele>153.0</ele><time>2026-04-10T16:57:39.001Z</time></trkpt><trkpt lat="45.58410869646775" lon="10.132834992546698"><ele>153.0</ele><time>2026-04-10T16:57:41.001Z</time></trkpt><trkpt lat="45.58403586567511" lon="10.13289736962594"><ele>153.0</ele><time>2026-04-10T16:57:44.001Z</time></trkpt><trkpt lat="45.58400565660233" lon="10.132817028552216"><ele>153.0</ele><time>2026-04-10T16:57:46.001Z</time></trkpt><trkpt lat="45.58402034771408" lon="10.13272275042201"><ele>153.0</ele><time>2026-04-10T16:57:48Z</time></trkpt><trkpt lat="45.584017382986424" lon="10.132589075576902"><ele>153.0</ele><time>2026-04-10T16:57:51.001Z</time></trkpt><trkpt lat="45.58400633651307" lon="10.132463496177724"><ele>152.83333333333334</ele><time>2026-04-10T16:57:54Z</time></trkpt><trkpt lat="45.58399763921599" lon="10.132343966826449"><ele>152.66666666666666</ele><time>2026-04-10T16:57:57.001Z</time></trkpt><trkpt lat="45.584005267901965" lon="10.132234200645183"><ele>152.5</ele><time>2026-04-10T16:58:00Z</time></trkpt><trkpt lat="45.58399776714209" lon="10.132115584130512"><ele>152.33333333333331</ele><time>2026-04-10T16:58:03Z</time></trkpt><trkpt lat="45.584007583365704" lon="10.13199717508806"><ele>152.16666666666666</ele><time>2026-04-10T16:58:06Z</time></trkpt><trkpt lat="45.58400101264177" lon="10.13189888966826"><ele>152.0</ele><time>2026-04-10T16:58:08Z</time></trkpt><trkpt lat="45.5839930400307" lon="10.131806058644479"><ele>152.0</ele><time>2026-04-10T16:58:10Z</time></trkpt><trkpt lat="45.583995811493814" lon="10.131680855145511"><ele>152.0</ele><time>2026-04-10T16:58:13Z</time></trkpt><trkpt lat="45.583994356962435" lon="10.131585285380218"><ele>152.0</ele><time>2026-04-10T16:58:15Z</time></trkpt><trkpt lat="45.583999417856575" lon="10.131458563021694"><ele>152.0</ele><time>2026-04-10T16:58:18Z</time></trkpt><trkpt lat="45.58399418014328" lon="10.131368329564276"><ele>152.0</ele><time>2026-04-10T16:58:20Z</time></trkpt><trkpt lat="45.583998243231306" lon="10.13127671926753"><ele>152.0</ele><time>2026-04-10T16:58:22Z</time></trkpt><trkpt lat="45.58400422777837" lon="10.131147183279984"><ele>152.0</ele><time>2026-04-10T16:58:25Z</time></trkpt><trkpt lat="45.58398939109307" lon="10.131037697975566"><ele>152.0</ele><time>2026-04-10T16:58:28Z</time></trkpt><trkpt lat="45.58398241135095" lon="10.130935867490049"><ele>152.0</ele><time>2026-04-10T16:58:32Z</time></trkpt><trkpt lat="45.58397547412647" lon="10.13084001670357"><ele>152.0</ele><time>2026-04-10T16:58:37Z</time></trkpt><trkpt lat="45.58398399905163" lon="10.130737654315737"><ele>152.0</ele><time>2026-04-10T16:58:44.001Z</time></trkpt><trkpt lat="45.58398356777298" lon="10.130635904945441"><ele>152.0</ele><time>2026-04-10T16:58:50.001Z</time></trkpt><trkpt lat="45.583988793780755" lon="10.13053650120329"><ele>152.0</ele><time>2026-04-10T16:58:56.001Z</time></trkpt><trkpt lat="45.583987519844825" lon="10.130432121479481"><ele>152.0</ele><time>2026-04-10T16:59:01.001Z</time></trkpt><trkpt lat="45.58399137829649" lon="10.130329857871189"><ele>152.0</ele><time>2026-04-10T16:59:06.001Z</time></trkpt><trkpt lat="45.58403488870572" lon="10.130252933728947"><ele>152.0</ele><time>2026-04-10T16:59:11.001Z</time></trkpt><trkpt lat="45.58410583711531" lon="10.130232330630731"><ele>152.0</ele><time>2026-04-10T16:59:17.001Z</time></trkpt><trkpt lat="45.58416975670689" lon="10.13024195587468"><ele>152.0</ele><time>2026-04-10T16:59:22.001Z</time></trkpt><trkpt lat="45.58424608801903" lon="10.130250359448635"><ele>152.0</ele><time>2026-04-10T16:59:28.001Z</time></trkpt><trkpt lat="45.584316175240055" lon="10.130268472411112"><ele>152.0</ele><time>2026-04-10T16:59:34.001Z</time></trkpt><trkpt lat="45.5843860985071" lon="10.130273466265063"><ele>152.0</ele><time>2026-04-10T16:59:40.001Z</time></trkpt><trkpt lat="45.58445682487451" lon="10.130284294782701"><ele>152.0</ele><time>2026-04-10T16:59:46.001Z</time></trkpt><trkpt lat="45.584520033846196" lon="10.130290165286283"><ele>152.0</ele><time>2026-04-10T16:59:51.001Z</time></trkpt><trkpt lat="45.58459377349325" lon="10.130289886668052"><ele>152.0</ele><time>2026-04-10T16:59:56Z</time></trkpt><trkpt lat="45.584664119219056" lon="10.130311646941774"><ele>152.0</ele><time>2026-04-10T17:00:01.001Z</time></trkpt><trkpt lat="45.584754801956244" lon="10.130308335333764"><ele>152.0</ele><time>2026-04-10T17:00:05Z</time></trkpt><trkpt lat="45.584823298499025" lon="10.130322291037523"><ele>152.0</ele><time>2026-04-10T17:00:08Z</time></trkpt><trkpt lat="45.5848980138369" lon="10.13033531238581"><ele>152.28571428571428</ele><time>2026-04-10T17:00:11Z</time></trkpt><trkpt lat="45.58496937116017" lon="10.130346900207721"><ele>152.57142857142858</ele><time>2026-04-10T17:00:14Z</time></trkpt><trkpt lat="45.58503510214388" lon="10.130347441479074"><ele>152.85714285714286</ele><time>2026-04-10T17:00:17.001Z</time></trkpt><trkpt lat="45.585100389095885" lon="10.130357756589786"><ele>153.14285714285714</ele><time>2026-04-10T17:00:20.001Z</time></trkpt><trkpt lat="45.58516966101253" lon="10.13036503122751"><ele>153.42857142857144</ele><time>2026-04-10T17:00:23.001Z</time></trkpt><trkpt lat="45.58525458555367" lon="10.130368519078553"><ele>153.71428571428572</ele><time>2026-04-10T17:00:27.001Z</time></trkpt><trkpt lat="45.585323934770024" lon="10.130374971881423"><ele>154.0</ele><time>2026-04-10T17:00:30.001Z</time></trkpt><trkpt lat="45.58538778934153" lon="10.130384680150684"><ele>154.28571428571428</ele><time>2026-04-10T17:00:33.001Z</time></trkpt><trkpt lat="45.58546612589725" lon="10.13039579852686"><ele>154.57142857142856</ele><time>2026-04-10T17:00:37.001Z</time></trkpt><trkpt lat="45.58554160701984" lon="10.130412491013168"><ele>154.85714285714286</ele><time>2026-04-10T17:00:41.001Z</time></trkpt><trkpt lat="45.585619135125825" lon="10.130436606370608"><ele>155.14285714285714</ele><time>2026-04-10T17:00:45.001Z</time></trkpt><trkpt lat="45.58569383683447" lon="10.130475558112204"><ele>155.42857142857142</ele><time>2026-04-10T17:00:49.001Z</time></trkpt><trkpt lat="45.58575953901696" lon="10.13050872335756"><ele>155.71428571428572</ele><time>2026-04-10T17:00:52.001Z</time></trkpt><trkpt lat="45.58581985653768" lon="10.130542553388825"><ele>156.0</ele><time>2026-04-10T17:00:55.001Z</time></trkpt><trkpt lat="45.5858966452713" lon="10.130579872763604"><ele>156.0</ele><time>2026-04-10T17:00:59.001Z</time></trkpt><trkpt lat="45.585967554995385" lon="10.130605493913446"><ele>156.0</ele><time>2026-04-10T17:01:02.001Z</time></trkpt><trkpt lat="45.5860497134563" lon="10.130639888072896"><ele>156.0</ele><time>2026-04-10T17:01:06.001Z</time></trkpt><trkpt lat="45.5861118126469" lon="10.130661480918633"><ele>156.0</ele><time>2026-04-10T17:01:09.001Z</time></trkpt><trkpt lat="45.586189105867255" lon="10.130701120226565"><ele>156.0</ele><time>2026-04-10T17:01:13.001Z</time></trkpt><trkpt lat="45.58626702135343" lon="10.130735043334731"><ele>156.0</ele><time>2026-04-10T17:01:17.001Z</time></trkpt><trkpt lat="45.58633178201868" lon="10.13076738179346"><ele>155.71428571428572</ele><time>2026-04-10T17:01:20.001Z</time></trkpt><trkpt lat="45.58639610577552" lon="10.130790988642561"><ele>155.42857142857142</ele><time>2026-04-10T17:01:23.001Z</time></trkpt><trkpt lat="45.58645940802761" lon="10.13081970217987"><ele>155.14285714285714</ele><time>2026-04-10T17:01:26.001Z</time></trkpt><trkpt lat="45.5865246824159" lon="10.130831423027223"><ele>154.85714285714286</ele><time>2026-04-10T17:01:29.001Z</time></trkpt><trkpt lat="45.58658968028232" lon="10.130837149304897"><ele>154.57142857142856</ele><time>2026-04-10T17:01:32.001Z</time></trkpt><trkpt lat="45.58666538974532" lon="10.130854748333688"><ele>154.28571428571428</ele><time>2026-04-10T17:01:35.001Z</time></trkpt><trkpt lat="45.58673202743739" lon="10.130852918519633"><ele>154.0</ele><time>2026-04-10T17:01:38.001Z</time></trkpt><trkpt lat="45.58680744153704" lon="10.130867101233727"><ele>154.0</ele><time>2026-04-10T17:01:41.001Z</time></trkpt><trkpt lat="45.5868774024468" lon="10.130870567634979"><ele>154.0</ele><time>2026-04-10T17:01:44.001Z</time></trkpt><trkpt lat="45.58694478960065" lon="10.130874200947959"><ele>154.0</ele><time>2026-04-10T17:01:47.001Z</time></trkpt><trkpt lat="45.58701198174274" lon="10.13086972045927"><ele>154.0</ele><time>2026-04-10T17:01:50.001Z</time></trkpt><trkpt lat="45.58708281923564" lon="10.130893089870485"><ele>154.0</ele><time>2026-04-10T17:01:53.001Z</time></trkpt><trkpt lat="45.58714917774103" lon="10.13088923640395"><ele>154.0</ele><time>2026-04-10T17:01:56.001Z</time></trkpt><trkpt lat="45.58723328523184" lon="10.130886874668873"><ele>154.0</ele><time>2026-04-10T17:02:00.001Z</time></trkpt><trkpt lat="45.587301718292984" lon="10.130897062413935"><ele>154.0</ele><time>2026-04-10T17:02:03.001Z</time></trkpt><trkpt lat="45.587366313998274" lon="10.130900973016432"><ele>154.0</ele><time>2026-04-10T17:02:06.001Z</time></trkpt><trkpt lat="45.58744783499669" lon="10.130907676813223"><ele>154.0</ele><time>2026-04-10T17:02:10.001Z</time></trkpt><trkpt lat="45.58751533367304" lon="10.13091526956426"><ele>154.0</ele><time>2026-04-10T17:02:12.999Z</time></trkpt><trkpt lat="45.587581659821296" lon="10.130925138641219"><ele>154.0</ele><time>2026-04-10T17:02:15.998Z</time></trkpt><trkpt lat="45.58764974122285" lon="10.130932522139181"><ele>154.0</ele><time>2026-04-10T17:02:18.997Z</time></trkpt><trkpt lat="45.587721573913" lon="10.130951599746519"><ele>154.0</ele><time>2026-04-10T17:02:21.996Z</time></trkpt><trkpt lat="45.58779200079817" lon="10.130953828631975"><ele>154.0</ele><time>2026-04-10T17:02:24.995Z</time></trkpt><trkpt lat="45.58786032069871" lon="10.130952930607373"><ele>154.0</ele><time>2026-04-10T17:02:27.995Z</time></trkpt><trkpt lat="45.58792473284723" lon="10.13094930274925"><ele>154.0</ele><time>2026-04-10T17:02:30.994Z</time></trkpt><trkpt lat="45.58799847455606" lon="10.13095700040788"><ele>154.0</ele><time>2026-04-10T17:02:33.994Z</time></trkpt><trkpt lat="45.58806209615052" lon="10.130949077386786"><ele>154.0</ele><time>2026-04-10T17:02:36.994Z</time></trkpt><trkpt lat="45.58812504516113" lon="10.130945230776332"><ele>154.0</ele><time>2026-04-10T17:02:39.993Z</time></trkpt><trkpt lat="45.58819493838652" lon="10.13094168297684"><ele>154.0</ele><time>2026-04-10T17:02:42.993Z</time></trkpt><trkpt lat="45.58826307144517" lon="10.130938043381413"><ele>154.0</ele><time>2026-04-10T17:02:45.993Z</time></trkpt><trkpt lat="45.58833127519293" lon="10.130934052176764"><ele>154.0</ele><time>2026-04-10T17:02:48.993Z</time></trkpt><trkpt lat="45.588413053373934" lon="10.130917362098291"><ele>154.0</ele><time>2026-04-10T17:02:52.993Z</time></trkpt><trkpt lat="45.58848308998167" lon="10.130906059518043"><ele>154.0</ele><time>2026-04-10T17:02:55.993Z</time></trkpt><trkpt lat="45.58855345340713" lon="10.130897809996746"><ele>154.0</ele><time>2026-04-10T17:02:58.993Z</time></trkpt><trkpt lat="45.588623355957" lon="10.130893727176822"><ele>154.0</ele><time>2026-04-10T17:03:01.993Z</time></trkpt><trkpt lat="45.58869116015836" lon="10.130888428558977"><ele>154.0</ele><time>2026-04-10T17:03:04.993Z</time></trkpt><trkpt lat="45.58875467008899" lon="10.130880617419534"><ele>153.85714285714286</ele><time>2026-04-10T17:03:07.992Z</time></trkpt><trkpt lat="45.588821802998346" lon="10.130882280193134"><ele>153.71428571428572</ele><time>2026-04-10T17:03:10.992Z</time></trkpt><trkpt lat="45.58888538257365" lon="10.130880767318192"><ele>153.57142857142856</ele><time>2026-04-10T17:03:13.992Z</time></trkpt><trkpt lat="45.58897262205504" lon="10.130884511127253"><ele>153.42857142857144</ele><time>2026-04-10T17:03:17.992Z</time></trkpt><trkpt lat="45.589044324958486" lon="10.130879583260093"><ele>153.28571428571428</ele><time>2026-04-10T17:03:20.992Z</time></trkpt><trkpt lat="45.58911120850056" lon="10.130887237121044"><ele>153.14285714285714</ele><time>2026-04-10T17:03:23.992Z</time></trkpt><trkpt lat="45.58919551066882" lon="10.130885558783302"><ele>153.0</ele><time>2026-04-10T17:03:27.992Z</time></trkpt><trkpt lat="45.58926170545518" lon="10.130886499035238"><ele>153.0</ele><time>2026-04-10T17:03:30.992Z</time></trkpt><trkpt lat="45.58933100445873" lon="10.130879108722501"><ele>153.0</ele><time>2026-04-10T17:03:33.992Z</time></trkpt><trkpt lat="45.589400764697274" lon="10.130882010023983"><ele>153.0</ele><time>2026-04-10T17:03:36.992Z</time></trkpt><trkpt lat="45.5894694626623" lon="10.130889799004478"><ele>153.0</ele><time>2026-04-10T17:03:39.992Z</time></trkpt><trkpt lat="45.58955375623825" lon="10.130882369467928"><ele>153.0</ele><time>2026-04-10T17:03:43.992Z</time></trkpt><trkpt lat="45.58962484319263" lon="10.130881550851434"><ele>153.0</ele><time>2026-04-10T17:03:46.992Z</time></trkpt><trkpt lat="45.58969113893574" lon="10.130886228686249"><ele>153.0</ele><time>2026-04-10T17:03:49.992Z</time></trkpt><trkpt lat="45.58975494805215" lon="10.130891339596872"><ele>153.28571428571428</ele><time>2026-04-10T17:03:52.992Z</time></trkpt><trkpt lat="45.589824944438945" lon="10.130896672958208"><ele>153.57142857142858</ele><time>2026-04-10T17:03:55.992Z</time></trkpt><trkpt lat="45.58988854188991" lon="10.130895653474314"><ele>153.85714285714286</ele><time>2026-04-10T17:03:58.992Z</time></trkpt><trkpt lat="45.589954805600804" lon="10.130890126698928"><ele>154.14285714285714</ele><time>2026-04-10T17:04:01.992Z</time></trkpt><trkpt lat="45.59002149361307" lon="10.130890604266728"><ele>154.42857142857142</ele><time>2026-04-10T17:04:04.992Z</time></trkpt><trkpt lat="45.5900901164632" lon="10.130888274614641"><ele>154.71428571428572</ele><time>2026-04-10T17:04:07.992Z</time></trkpt><trkpt lat="45.590156473054144" lon="10.130894726739088"><ele>155.0</ele><time>2026-04-10T17:04:10.992Z</time></trkpt><trkpt lat="45.59023670374351" lon="10.130902121808559"><ele>155.0</ele><time>2026-04-10T17:04:14.992Z</time></trkpt><trkpt lat="45.59032081223695" lon="10.130910064527757"><ele>155.0</ele><time>2026-04-10T17:04:18.992Z</time></trkpt><trkpt lat="45.59038413909752" lon="10.13091076340811"><ele>155.0</ele><time>2026-04-10T17:04:21.992Z</time></trkpt><trkpt lat="45.59046576486419" lon="10.130924286371998"><ele>155.0</ele><time>2026-04-10T17:04:25.992Z</time></trkpt><trkpt lat="45.590534383381765" lon="10.130925580050643"><ele>155.0</ele><time>2026-04-10T17:04:28.992Z</time></trkpt><trkpt lat="45.59060293448789" lon="10.130933027924396"><ele>155.0</ele><time>2026-04-10T17:04:31.992Z</time></trkpt><trkpt lat="45.59066395468758" lon="10.130957540494297"><ele>155.0</ele><time>2026-04-10T17:04:34.992Z</time></trkpt><trkpt lat="45.59074222284198" lon="10.13097651303806"><ele>155.0</ele><time>2026-04-10T17:04:38.992Z</time></trkpt><trkpt lat="45.59080910930496" lon="10.130979306469433"><ele>155.0</ele><time>2026-04-10T17:04:41.992Z</time></trkpt><trkpt lat="45.590875812179526" lon="10.130987714278733"><ele>155.0</ele><time>2026-04-10T17:04:44.993Z</time></trkpt><trkpt lat="45.59095376956623" lon="10.131002234807255"><ele>155.0</ele><time>2026-04-10T17:04:48.993Z</time></trkpt><trkpt lat="45.59102846785562" lon="10.131005686250178"><ele>155.0</ele><time>2026-04-10T17:04:51.993Z</time></trkpt><trkpt lat="45.59109407336376" lon="10.131017810231747"><ele>155.0</ele><time>2026-04-10T17:04:54.993Z</time></trkpt><trkpt lat="45.59116077101888" lon="10.131037181842963"><ele>155.0</ele><time>2026-04-10T17:04:57.993Z</time></trkpt><trkpt lat="45.59122721356064" lon="10.13104514275966"><ele>155.28571428571428</ele><time>2026-04-10T17:05:00.993Z</time></trkpt><trkpt lat="45.59129551414647" lon="10.131056972897994"><ele>155.57142857142856</ele><time>2026-04-10T17:05:03.993Z</time></trkpt><trkpt lat="45.59136122881361" lon="10.131076290241827"><ele>155.85714285714283</ele><time>2026-04-10T17:05:06.993Z</time></trkpt><trkpt lat="45.59144515799768" lon="10.131090645805644"><ele>156.14285714285714</ele><time>2026-04-10T17:05:10.993Z</time></trkpt><trkpt lat="45.591508091018866" lon="10.131106090571066"><ele>156.42857142857142</ele><time>2026-04-10T17:05:13.993Z</time></trkpt><trkpt lat="45.59157302318959" lon="10.131114597950443"><ele>156.7142857142857</ele><time>2026-04-10T17:05:16.993Z</time></trkpt><trkpt lat="45.59164359634309" lon="10.131126619342904"><ele>157.0</ele><time>2026-04-10T17:05:19.993Z</time></trkpt><trkpt lat="45.59171122851175" lon="10.131136666177838"><ele>156.99999999999997</ele><time>2026-04-10T17:05:22.993Z</time></trkpt><trkpt lat="45.59179265115626" lon="10.131155193000442"><ele>157.0</ele><time>2026-04-10T17:05:26.993Z</time></trkpt><trkpt lat="45.591869470487985" lon="10.131182072007665"><ele>157.0</ele><time>2026-04-10T17:05:30.993Z</time></trkpt><trkpt lat="45.59194855191044" lon="10.13119983854736"><ele>157.0</ele><time>2026-04-10T17:05:34.993Z</time></trkpt><trkpt lat="45.59201399055956" lon="10.131215942316256"><ele>157.0</ele><time>2026-04-10T17:05:37.993Z</time></trkpt><trkpt lat="45.59208092028013" lon="10.131216173662265"><ele>156.99999999999997</ele><time>2026-04-10T17:05:40.993Z</time></trkpt><trkpt lat="45.59214616363869" lon="10.131242415795317"><ele>157.0</ele><time>2026-04-10T17:05:43.993Z</time></trkpt><trkpt lat="45.59220971217942" lon="10.131290917355082"><ele>156.99999999999997</ele><time>2026-04-10T17:05:46.993Z</time></trkpt><trkpt lat="45.59227200817791" lon="10.131331117340675"><ele>157.0</ele><time>2026-04-10T17:05:49.993Z</time></trkpt><trkpt lat="45.59233418750029" lon="10.131364416874993"><ele>157.0</ele><time>2026-04-10T17:05:52.993Z</time></trkpt><trkpt lat="45.59239993968531" lon="10.131358127629145"><ele>157.0</ele><time>2026-04-10T17:05:55.993Z</time></trkpt><trkpt lat="45.59244712926086" lon="10.131264075789176"><ele>157.0</ele><time>2026-04-10T17:05:58.993Z</time></trkpt><trkpt lat="45.592499711284034" lon="10.131187303607756"><ele>156.99999999999997</ele><time>2026-04-10T17:06:01.993Z</time></trkpt><trkpt lat="45.59255144614647" lon="10.131105190424059"><ele>157.0</ele><time>2026-04-10T17:06:04.993Z</time></trkpt><trkpt lat="45.59261467852247" lon="10.131058828271465"><ele>156.99999999999997</ele><time>2026-04-10T17:06:07.993Z</time></trkpt><trkpt lat="45.59268173970347" lon="10.13101469133799"><ele>157.0</ele><time>2026-04-10T17:06:10.993Z</time></trkpt><trkpt lat="45.59274917628184" lon="10.130985732335589"><ele>157.0</ele><time>2026-04-10T17:06:13.991Z</time></trkpt><trkpt lat="45.59282267929414" lon="10.130996479103139"><ele>157.0</ele><time>2026-04-10T17:06:16.992Z</time></trkpt><trkpt lat="45.59290137265719" lon="10.131024513624565"><ele>157.0</ele><time>2026-04-10T17:06:20.992Z</time></trkpt><trkpt lat="45.5929689096985" lon="10.13102604633167"><ele>156.99999999999997</ele><time>2026-04-10T17:06:23.991Z</time></trkpt><trkpt lat="45.59304172232715" lon="10.13103525433991"><ele>157.0</ele><time>2026-04-10T17:06:26.992Z</time></trkpt><trkpt lat="45.59310705963213" lon="10.13103037183273"><ele>157.0</ele><time>2026-04-10T17:06:29.992Z</time></trkpt><trkpt lat="45.59317565480988" lon="10.131026466156671"><ele>157.0</ele><time>2026-04-10T17:06:32.992Z</time></trkpt><trkpt lat="45.593241944636944" lon="10.13101556365391"><ele>157.0</ele><time>2026-04-10T17:06:35.992Z</time></trkpt><trkpt lat="45.593372825097575" lon="10.131153689108384"><ele>157.0</ele><time>2026-04-10T17:06:45.992Z</time></trkpt><trkpt lat="45.5934439828895" lon="10.13117970050475"><ele>157.0</ele><time>2026-04-10T17:06:47.992Z</time></trkpt><trkpt lat="45.593518238446514" lon="10.131209186409565"><ele>157.0</ele><time>2026-04-10T17:06:49.992Z</time></trkpt><trkpt lat="45.59358803339203" lon="10.131213377686844"><ele>157.0</ele><time>2026-04-10T17:06:51.992Z</time></trkpt><trkpt lat="45.59366871539654" lon="10.131231245068005"><ele>157.0</ele><time>2026-04-10T17:06:54.992Z</time></trkpt><trkpt lat="45.593749635099904" lon="10.131204251935761"><ele>157.0</ele><time>2026-04-10T17:06:57.992Z</time></trkpt><trkpt lat="45.593825737680596" lon="10.131190091392684"><ele>157.0</ele><time>2026-04-10T17:07:00.992Z</time></trkpt><trkpt lat="45.59389915258412" lon="10.131179670549917"><ele>157.0</ele><time>2026-04-10T17:07:03.992Z</time></trkpt><trkpt lat="45.59397940062369" lon="10.131176049352167"><ele>157.0</ele><time>2026-04-10T17:07:07.992Z</time></trkpt><trkpt lat="45.59405646975602" lon="10.131177698303992"><ele>157.0</ele><time>2026-04-10T17:07:10.992Z</time></trkpt><trkpt lat="45.59413063435104" lon="10.131188616402387"><ele>157.0</ele><time>2026-04-10T17:07:13.992Z</time></trkpt><trkpt lat="45.59421071643277" lon="10.131197676600326"><ele>157.0</ele><time>2026-04-10T17:07:16.992Z</time></trkpt><trkpt lat="45.59428356840356" lon="10.131209813018458"><ele>157.0</ele><time>2026-04-10T17:07:19.992Z</time></trkpt><trkpt lat="45.594365487370226" lon="10.131226509766805"><ele>157.0</ele><time>2026-04-10T17:07:23.992Z</time></trkpt><trkpt lat="45.59444588284895" lon="10.13124142827635"><ele>157.0</ele><time>2026-04-10T17:07:27.992Z</time></trkpt><trkpt lat="45.59452859853279" lon="10.131237941140327"><ele>157.5</ele><time>2026-04-10T17:07:31.992Z</time></trkpt><trkpt lat="45.59460117240505" lon="10.131258423253435"><ele>158.0</ele><time>2026-04-10T17:07:34.992Z</time></trkpt><trkpt lat="45.59468468943977" lon="10.131286014533512"><ele>158.5</ele><time>2026-04-10T17:07:38.992Z</time></trkpt><trkpt lat="45.5947404949562" lon="10.131375638154427"><ele>159.0</ele><time>2026-04-10T17:07:41.992Z</time></trkpt><trkpt lat="45.59481125751673" lon="10.131435342168173"><ele>159.5</ele><time>2026-04-10T17:07:44.992Z</time></trkpt><trkpt lat="45.59489824686185" lon="10.13145542132787"><ele>160.0</ele><time>2026-04-10T17:07:47.992Z</time></trkpt><trkpt lat="45.5949701438285" lon="10.13150363493603"><ele>160.0</ele><time>2026-04-10T17:07:50.992Z</time></trkpt><trkpt lat="45.59498843872219" lon="10.131602807311635"><ele>160.0</ele><time>2026-04-10T17:07:53.992Z</time></trkpt><trkpt lat="45.59495076075313" lon="10.131690897706"><ele>160.0</ele><time>2026-04-10T17:07:57.992Z</time></trkpt><trkpt lat="45.59495568485235" lon="10.13179895036196"><ele>160.0</ele><time>2026-04-10T17:08:00.992Z</time></trkpt><trkpt lat="45.59494378832759" lon="10.13191610409619"><ele>160.0</ele><time>2026-04-10T17:08:04.992Z</time></trkpt><trkpt lat="45.59495259788713" lon="10.132006056043624"><ele>160.0</ele><time>2026-04-10T17:08:07.992Z</time></trkpt><trkpt lat="45.59493021784162" lon="10.132100308559583"><ele>160.0</ele><time>2026-04-10T17:08:10.992Z</time></trkpt><trkpt lat="45.594895296134744" lon="10.132201073789586"><ele>160.0</ele><time>2026-04-10T17:08:14.992Z</time></trkpt><trkpt lat="45.59487686255885" lon="10.13232949243219"><ele>160.0</ele><time>2026-04-10T17:08:17.991Z</time></trkpt><trkpt lat="45.5948611482206" lon="10.13243852903068"><ele>160.0</ele><time>2026-04-10T17:08:20.992Z</time></trkpt><trkpt lat="45.59484854036852" lon="10.132565583620167"><ele>160.0</ele><time>2026-04-10T17:08:24.992Z</time></trkpt><trkpt lat="45.59482810861491" lon="10.13265830267169"><ele>160.0</ele><time>2026-04-10T17:08:27.992Z</time></trkpt><trkpt lat="45.59482721118176" lon="10.132758599524696"><ele>160.0</ele><time>2026-04-10T17:08:30.992Z</time></trkpt><trkpt lat="45.59481440959663" lon="10.13285435858719"><ele>160.14285714285714</ele><time>2026-04-10T17:08:33.992Z</time></trkpt><trkpt lat="45.59480362437217" lon="10.132949436650279"><ele>160.28571428571428</ele><time>2026-04-10T17:08:36.992Z</time></trkpt><trkpt lat="45.59477744040347" lon="10.133055455614697"><ele>160.42857142857144</ele><time>2026-04-10T17:08:39.992Z</time></trkpt><trkpt lat="45.59476006909563" lon="10.13314728051978"><ele>160.57142857142856</ele><time>2026-04-10T17:08:42.992Z</time></trkpt><trkpt lat="45.594741392891024" lon="10.133238601607287"><ele>160.71428571428572</ele><time>2026-04-10T17:08:45.992Z</time></trkpt><trkpt lat="45.59471816710155" lon="10.133351749479852"><ele>160.85714285714286</ele><time>2026-04-10T17:08:49.992Z</time></trkpt><trkpt lat="45.59470130857902" lon="10.133449943221633"><ele>161.0</ele><time>2026-04-10T17:08:52.992Z</time></trkpt><trkpt lat="45.59468692007429" lon="10.133543002717785"><ele>161.42857142857142</ele><time>2026-04-10T17:08:55.992Z</time></trkpt><trkpt lat="45.594664017859095" lon="10.133636813202878"><ele>161.85714285714286</ele><time>2026-04-10T17:08:58.992Z</time></trkpt><trkpt lat="45.59463680123397" lon="10.133723472557712"><ele>162.28571428571428</ele><time>2026-04-10T17:09:01.992Z</time></trkpt><trkpt lat="45.5946191492415" lon="10.13381517693062"><ele>162.71428571428572</ele><time>2026-04-10T17:09:04.992Z</time></trkpt><trkpt lat="45.594614066991355" lon="10.13392190287743"><ele>163.14285714285714</ele><time>2026-04-10T17:09:07.992Z</time></trkpt><trkpt lat="45.59458964075676" lon="10.134015212813647"><ele>163.57142857142856</ele><time>2026-04-10T17:09:10.992Z</time></trkpt><trkpt lat="45.594557838359464" lon="10.13411004216787"><ele>164.0</ele><time>2026-04-10T17:09:13.992Z</time></trkpt><trkpt lat="45.59455054536062" lon="10.134204928317049"><ele>164.0</ele><time>2026-04-10T17:09:16.992Z</time></trkpt><trkpt lat="45.594541721917274" lon="10.134309197103688"><ele>164.0</ele><time>2026-04-10T17:09:19.992Z</time></trkpt><trkpt lat="45.594527893774526" lon="10.13440220601034"><ele>164.0</ele><time>2026-04-10T17:09:22.992Z</time></trkpt><trkpt lat="45.594515340838" lon="10.134510271744192"><ele>164.0</ele><time>2026-04-10T17:09:26.992Z</time></trkpt><trkpt lat="45.59450345226388" lon="10.134601458811288"><ele>160.0</ele><time>2026-04-10T17:09:34.992Z</time></trkpt></trkseg></trk></gpx>